PWSweather.com
Personal Weather Stations
Station Observations
PD2RLD
BitgummoleNL 9045

BitgummoleNL 9045

Lat: 53.23673220000001, Lon: 5.704299799999944

Elevation: 3

Station Type: Oregon Scientific WMR-88

Latest ConditionsUpdated 12:24:03 PM GMT+01:01 Saturday, Jul 21, 2018
Currently Today's Max Today's Min Today's Average
Temperature 82.6°F28.1°C 82.9°F28.3°C 59.7°F15.4°C 66.3°F19.1°C
Dew Point 67.3°F19.6°C 68.1°F20.1°C 45.5°F7.5°C 54.7°F12.6°C
Winds 2.9 mph NE4.7 kmh NE 9.8 mph -15.8 kmh - - 3.6 mph 5.8 kmh
Wind Gusts 4.7 mph7.6 kmh 13.8 mph22.2 kmh - -
Humidity 60% 73% 57% 66%
Pressure 29.83 in1010.2 mb 29.86 in1011.2 mb 29.80 in1009.1 mb -
Hour Temp Dew Point Humidity Winds Wind Gusts Pressure Precip Precip Rate Daily Precip Total
12:24 PM 82.6°F28.1°C 67.3°F19.6°C 60% 2.9 mph NE4.7 kmh NE 4.7 mph7.6 kmh 29.83 in1010.2 mb 0.00 in0.0 mm 0.00 in0.0 mm 0.00 in0.0 mm
12:23 PM 82.4°F28.0°C 67.1°F19.5°C 60% 3.7 mph NE6.0 kmh NE 7.8 mph12.6 kmh 29.83 in1010.2 mb 0.00 in0.0 mm 0.00 in0.0 mm 0.00 in0.0 mm
12:22 PM 82.4°F28.0°C 67.1°F19.5°C 60% 4.0 mph NE6.4 kmh NE 7.8 mph12.6 kmh 29.83 in1010.2 mb 0.00 in0.0 mm 0.00 in0.0 mm 0.00 in0.0 mm
12:21 PM 82.4°F28.0°C 67.1°F19.5°C 60% 4.2 mph NE6.8 kmh NE 7.8 mph12.6 kmh 29.83 in1010.2 mb 0.00 in0.0 mm 0.00 in0.0 mm 0.00 in0.0 mm
12:20 PM 82.4°F28.0°C 67.1°F19.5°C 60% 4.2 mph NE6.8 kmh NE 7.8 mph12.6 kmh 29.83 in1010.2 mb 0.00 in0.0 mm 0.00 in0.0 mm 0.00 in0.0 mm
12:19 PM 82.9°F28.3°C 68.1°F20.1°C 61% 4.7 mph ENE7.6 kmh ENE 7.8 mph12.6 kmh 29.83 in1010.2 mb 0.00 in0.0 mm 0.00 in0.0 mm 0.00 in0.0 mm
12:18 PM 82.8°F28.2°C 67.9°F19.9°C 61% 4.6 mph ENE7.4 kmh ENE 7.8 mph12.6 kmh 29.83 in1010.2 mb 0.00 in0.0 mm 0.00 in0.0 mm 0.00 in0.0 mm
12:17 PM 82.8°F28.2°C 67.9°F19.9°C 61% 4.7 mph E7.6 kmh E 7.8 mph12.6 kmh 29.83 in1010.2 mb 0.00 in0.0 mm 0.00 in0.0 mm 0.00 in0.0 mm
12:16 PM 82.8°F28.2°C 67.9°F19.9°C 61% 4.8 mph E7.7 kmh E 7.8 mph12.6 kmh 29.83 in1010.2 mb 0.00 in0.0 mm 0.00 in0.0 mm 0.00 in0.0 mm
12:15 PM 82.8°F28.2°C 67.9°F19.9°C 61% 4.9 mph E7.9 kmh E 7.8 mph12.6 kmh 29.83 in1010.2 mb 0.00 in0.0 mm 0.00 in0.0 mm 0.00 in0.0 mm
12:14 PM 82.6°F28.1°C 67.8°F19.9°C 61% 5.4 mph E8.7 kmh E 10.6 mph17.1 kmh 29.83 in1010.2 mb 0.00 in0.0 mm 0.00 in0.0 mm 0.00 in0.0 mm
12:13 PM 82.6°F28.1°C 67.8°F19.9°C 61% 5.5 mph E8.9 kmh E 10.6 mph17.1 kmh 29.83 in1010.2 mb 0.00 in0.0 mm 0.00 in0.0 mm 0.00 in0.0 mm
12:12 PM 82.4°F28.0°C 67.6°F19.8°C 61% 5.7 mph ESE9.2 kmh ESE 10.6 mph17.1 kmh 29.83 in1010.2 mb 0.00 in0.0 mm 0.00 in0.0 mm 0.00 in0.0 mm
12:11 PM 82.2°F27.9°C 67.9°F19.9°C 62% 5.7 mph ESE9.2 kmh ESE 10.6 mph17.1 kmh 29.83 in1010.2 mb 0.00 in0.0 mm 0.00 in0.0 mm 0.00 in0.0 mm
12:10 PM 82.2°F27.9°C 67.9°F19.9°C 62% 5.9 mph ESE9.5 kmh ESE 10.6 mph17.1 kmh 29.83 in1010.2 mb 0.00 in0.0 mm 0.00 in0.0 mm 0.00 in0.0 mm
12:09 PM 82.2°F27.9°C 67.9°F19.9°C 62% 6.0 mph E9.7 kmh E 10.6 mph17.1 kmh 29.83 in1010.2 mb 0.00 in0.0 mm 0.00 in0.0 mm 0.00 in0.0 mm
12:08 PM 82.2°F27.9°C 67.9°F19.9°C 62% 6.4 mph E10.3 kmh E 10.6 mph17.1 kmh 29.83 in1010.2 mb 0.00 in0.0 mm 0.00 in0.0 mm 0.00 in0.0 mm
12:07 PM 82.2°F27.9°C 67.9°F19.9°C 62% 7.2 mph E11.6 kmh E 11.3 mph18.2 kmh 29.83 in1010.2 mb 0.00 in0.0 mm 0.00 in0.0 mm 0.00 in0.0 mm
12:06 PM 82.2°F27.9°C 67.9°F19.9°C 62% 7.4 mph E11.9 kmh E 11.3 mph18.2 kmh 29.83 in1010.2 mb 0.00 in0.0 mm 0.00 in0.0 mm 0.00 in0.0 mm
12:05 PM 82.2°F27.9°C 67.9°F19.9°C 62% 6.6 mph E10.6 kmh E 11.3 mph18.2 kmh 29.83 in1010.2 mb 0.00 in0.0 mm 0.00 in0.0 mm 0.00 in0.0 mm
12:04 PM 82.2°F27.9°C 67.9°F19.9°C 62% 6.4 mph E10.3 kmh E 11.3 mph18.2 kmh 29.83 in1010.2 mb 0.00 in0.0 mm 0.00 in0.0 mm 0.00 in0.0 mm
12:03 PM 82.0°F27.8°C 67.7°F19.8°C 62% 6.6 mph E10.6 kmh E 11.3 mph18.2 kmh 29.83 in1010.2 mb 0.00 in0.0 mm 0.00 in0.0 mm 0.00 in0.0 mm
12:02 PM 81.9°F27.7°C 67.6°F19.8°C 62% 6.4 mph E10.3 kmh E 11.3 mph18.2 kmh 29.83 in1010.2 mb 0.00 in0.0 mm 0.00 in0.0 mm 0.00 in0.0 mm
12:01 PM 81.9°F27.7°C 67.6°F19.8°C 62% 6.2 mph E10.0 kmh E 11.3 mph18.2 kmh 29.83 in1010.2 mb 0.00 in0.0 mm 0.00 in0.0 mm 0.00 in0.0 mm
12:00 PM 81.7°F27.6°C 67.4°F19.7°C 62% 6.5 mph E10.5 kmh E 11.3 mph18.2 kmh 29.83 in1010.2 mb 0.00 in0.0 mm 0.00 in0.0 mm 0.00 in0.0 mm
11:59 AM 81.7°F27.6°C 67.4°F19.7°C 62% 6.5 mph E10.5 kmh E 11.3 mph18.2 kmh 29.83 in1010.2 mb 0.00 in0.0 mm 0.00 in0.0 mm 0.00 in0.0 mm
11:58 AM 81.5°F27.5°C 67.2°F19.6°C 62% 6.2 mph E10.0 kmh E 11.3 mph18.2 kmh 29.83 in1010.2 mb 0.00 in0.0 mm 0.00 in0.0 mm 0.00 in0.0 mm
11:57 AM 81.5°F27.5°C 67.2°F19.6°C 62% 6.0 mph E9.7 kmh E 11.3 mph18.2 kmh 29.83 in1010.2 mb 0.00 in0.0 mm 0.00 in0.0 mm 0.00 in0.0 mm
11:56 AM 81.5°F27.5°C 67.2°F19.6°C 62% 5.1 mph E8.2 kmh E 8.8 mph14.2 kmh 29.83 in1010.2 mb 0.00 in0.0 mm 0.00 in0.0 mm 0.00 in0.0 mm
11:55 AM 81.1°F27.3°C 66.9°F19.4°C 62% 5.5 mph E8.9 kmh E 8.8 mph14.2 kmh 29.83 in1010.2 mb 0.00 in0.0 mm 0.00 in0.0 mm 0.00 in0.0 mm
11:54 AM 81.1°F27.3°C 66.9°F19.4°C 62% 5.5 mph ENE8.9 kmh ENE 8.8 mph14.2 kmh 29.83 in1010.2 mb 0.00 in0.0 mm 0.00 in0.0 mm 0.00 in0.0 mm
11:53 AM 81.1°F27.3°C 66.9°F19.4°C 62% 5.4 mph ENE8.7 kmh ENE 8.8 mph14.2 kmh 29.83 in1010.2 mb 0.00 in0.0 mm 0.00 in0.0 mm 0.00 in0.0 mm
11:52 AM 81.1°F27.3°C 66.9°F19.4°C 62% 5.8 mph ENE9.3 kmh ENE 8.8 mph14.2 kmh 29.83 in1010.2 mb 0.00 in0.0 mm 0.00 in0.0 mm 0.00 in0.0 mm
11:51 AM 81.0°F27.2°C 66.7°F19.3°C 62% 5.9 mph ENE9.5 kmh ENE 8.8 mph14.2 kmh 29.83 in1010.2 mb 0.00 in0.0 mm 0.00 in0.0 mm 0.00 in0.0 mm
11:50 AM 81.0°F27.2°C 66.7°F19.3°C 62% 6.0 mph NE9.7 kmh NE 8.8 mph14.2 kmh 29.83 in1010.2 mb 0.00 in0.0 mm 0.00 in0.0 mm 0.00 in0.0 mm
11:49 AM 81.0°F27.2°C 67.2°F19.6°C 63% 6.0 mph NE9.7 kmh NE 8.8 mph14.2 kmh 29.83 in1010.2 mb 0.00 in0.0 mm 0.00 in0.0 mm 0.00 in0.0 mm
11:48 AM 80.8°F27.1°C 67.0°F19.4°C 63% 5.9 mph NE9.5 kmh NE 8.8 mph14.2 kmh 29.83 in1010.2 mb 0.00 in0.0 mm 0.00 in0.0 mm 0.00 in0.0 mm
11:47 AM 80.8°F27.1°C 67.0°F19.4°C 63% 5.9 mph NE9.5 kmh NE 8.8 mph14.2 kmh 29.83 in1010.2 mb 0.00 in0.0 mm 0.00 in0.0 mm 0.00 in0.0 mm
11:46 AM 80.8°F27.1°C 67.0°F19.4°C 63% 5.7 mph NE9.2 kmh NE 8.8 mph14.2 kmh 29.83 in1010.2 mb 0.00 in0.0 mm 0.00 in0.0 mm 0.00 in0.0 mm
11:45 AM 80.8°F27.1°C 67.0°F19.4°C 63% 5.7 mph NE9.2 kmh NE 8.8 mph14.2 kmh 29.83 in1010.2 mb 0.00 in0.0 mm 0.00 in0.0 mm 0.00 in0.0 mm
11:44 AM 80.6°F27.0°C 66.8°F19.3°C 63% 6.2 mph NE10.0 kmh NE 9.1 mph14.6 kmh 29.83 in1010.2 mb 0.00 in0.0 mm 0.00 in0.0 mm 0.00 in0.0 mm
11:43 AM 80.6°F27.0°C 66.8°F19.3°C 63% 6.2 mph NE10.0 kmh NE 9.1 mph14.6 kmh 29.83 in1010.2 mb 0.00 in0.0 mm 0.00 in0.0 mm 0.00 in0.0 mm
11:42 AM 80.2°F26.8°C 66.5°F19.2°C 63% 6.0 mph NE9.7 kmh NE 9.1 mph14.6 kmh 29.83 in1010.2 mb 0.00 in0.0 mm 0.00 in0.0 mm 0.00 in0.0 mm
11:41 AM 80.1°F26.7°C 66.3°F19.1°C 63% 5.9 mph NE9.5 kmh NE 9.1 mph14.6 kmh 29.83 in1010.2 mb 0.00 in0.0 mm 0.00 in0.0 mm 0.00 in0.0 mm
11:40 AM 80.1°F26.7°C 66.3°F19.1°C 63% 6.2 mph ENE10.0 kmh ENE 9.1 mph14.6 kmh 29.83 in1010.2 mb 0.00 in0.0 mm 0.00 in0.0 mm 0.00 in0.0 mm
11:39 AM 79.9°F26.6°C 66.2°F19.0°C 63% 5.9 mph ENE9.5 kmh ENE 9.1 mph14.6 kmh 29.83 in1010.2 mb 0.00 in0.0 mm 0.00 in0.0 mm 0.00 in0.0 mm
11:38 AM 79.9°F26.6°C 66.2°F19.0°C 63% 6.0 mph ENE9.7 kmh ENE 9.1 mph14.6 kmh 29.83 in1010.2 mb 0.00 in0.0 mm 0.00 in0.0 mm 0.00 in0.0 mm
11:37 AM 79.7°F26.5°C 66.4°F19.1°C 64% 6.8 mph NE10.9 kmh NE 10.3 mph16.6 kmh 29.83 in1010.2 mb 0.00 in0.0 mm 0.00 in0.0 mm 0.00 in0.0 mm
11:36 AM 79.7°F26.5°C 66.4°F19.1°C 64% 7.0 mph NE11.3 kmh NE 10.3 mph16.6 kmh 29.83 in1010.2 mb 0.00 in0.0 mm 0.00 in0.0 mm 0.00 in0.0 mm
11:35 AM 79.7°F26.5°C 66.4°F19.1°C 64% 7.4 mph NE11.9 kmh NE 10.3 mph16.6 kmh 29.83 in1010.2 mb 0.00 in0.0 mm 0.00 in0.0 mm 0.00 in0.0 mm
11:34 AM 79.7°F26.5°C 66.4°F19.1°C 64% 7.2 mph NE11.6 kmh NE 10.3 mph16.6 kmh 29.83 in1010.2 mb 0.00 in0.0 mm 0.00 in0.0 mm 0.00 in0.0 mm
11:33 AM 79.5°F26.4°C 66.3°F19.1°C 64% 7.1 mph NE11.4 kmh NE 10.3 mph16.6 kmh 29.83 in1010.2 mb 0.00 in0.0 mm 0.00 in0.0 mm 0.00 in0.0 mm
11:32 AM 79.5°F26.4°C 66.3°F19.1°C 64% 7.1 mph NE11.4 kmh NE 10.3 mph16.6 kmh 29.83 in1010.2 mb 0.00 in0.0 mm 0.00 in0.0 mm 0.00 in0.0 mm
11:31 AM 79.5°F26.4°C 66.3°F19.1°C 64% 6.7 mph NE10.8 kmh NE 10.3 mph16.6 kmh 29.83 in1010.2 mb 0.00 in0.0 mm 0.00 in0.0 mm 0.00 in0.0 mm
11:30 AM 79.3°F26.3°C 66.1°F18.9°C 64% 6.7 mph NE10.8 kmh NE 10.3 mph16.6 kmh 29.83 in1010.2 mb 0.00 in0.0 mm 0.00 in0.0 mm 0.00 in0.0 mm
11:29 AM 79.3°F26.3°C 66.1°F18.9°C 64% 6.8 mph NE10.9 kmh NE 10.3 mph16.6 kmh 29.83 in1010.2 mb 0.00 in0.0 mm 0.00 in0.0 mm 0.00 in0.0 mm
11:28 AM 79.2°F26.2°C 65.9°F18.8°C 64% 7.3 mph NE11.7 kmh NE 11.3 mph18.2 kmh 29.83 in1010.2 mb 0.00 in0.0 mm 0.00 in0.0 mm 0.00 in0.0 mm
11:27 AM 79.2°F26.2°C 65.9°F18.8°C 64% 7.2 mph NE11.6 kmh NE 11.3 mph18.2 kmh 29.83 in1010.2 mb 0.00 in0.0 mm 0.00 in0.0 mm 0.00 in0.0 mm
11:26 AM 79.0°F26.1°C 65.8°F18.8°C 64% 6.7 mph NE10.8 kmh NE 11.3 mph18.2 kmh 29.83 in1010.2 mb 0.00 in0.0 mm 0.00 in0.0 mm 0.00 in0.0 mm
11:25 AM 79.0°F26.1°C 65.8°F18.8°C 64% 6.5 mph ENE10.5 kmh ENE 11.3 mph18.2 kmh 29.83 in1010.2 mb 0.00 in0.0 mm 0.00 in0.0 mm 0.00 in0.0 mm
11:24 AM 79.0°F26.1°C 65.8°F18.8°C 64% 6.6 mph ENE10.6 kmh ENE 11.3 mph18.2 kmh 29.83 in1010.2 mb 0.00 in0.0 mm 0.00 in0.0 mm 0.00 in0.0 mm
11:23 AM 78.8°F26.0°C 65.6°F18.7°C 64% 6.8 mph ENE10.9 kmh ENE 11.3 mph18.2 kmh 29.83 in1010.2 mb 0.00 in0.0 mm 0.00 in0.0 mm 0.00 in0.0 mm
11:22 AM 78.8°F26.0°C 65.6°F18.7°C 64% 6.8 mph E10.9 kmh E 11.3 mph18.2 kmh 29.83 in1010.2 mb 0.00 in0.0 mm 0.00 in0.0 mm 0.00 in0.0 mm
11:21 AM 78.8°F26.0°C 65.6°F18.7°C 64% 7.0 mph E11.3 kmh E 11.3 mph18.2 kmh 29.83 in1010.2 mb 0.00 in0.0 mm 0.00 in0.0 mm 0.00 in0.0 mm
11:20 AM 78.8°F26.0°C 65.6°F18.7°C 64% 7.0 mph E11.3 kmh E 11.3 mph18.2 kmh 29.83 in1010.2 mb 0.00 in0.0 mm 0.00 in0.0 mm 0.00 in0.0 mm
11:19 AM 78.6°F25.9°C 65.9°F18.8°C 65% 7.1 mph E11.4 kmh E 11.3 mph18.2 kmh 29.83 in1010.2 mb 0.00 in0.0 mm 0.00 in0.0 mm 0.00 in0.0 mm
11:18 AM 78.6°F25.9°C 65.9°F18.8°C 65% 6.9 mph E11.1 kmh E 11.3 mph18.2 kmh 29.83 in1010.2 mb 0.00 in0.0 mm 0.00 in0.0 mm 0.00 in0.0 mm
11:17 AM 78.6°F25.9°C 65.9°F18.8°C 65% 6.4 mph E10.3 kmh E 10.0 mph16.1 kmh 29.83 in1010.2 mb 0.00 in0.0 mm 0.00 in0.0 mm 0.00 in0.0 mm
11:16 AM 78.4°F25.8°C 65.7°F18.7°C 65% 6.3 mph E10.1 kmh E 10.0 mph16.1 kmh 29.83 in1010.2 mb 0.00 in0.0 mm 0.00 in0.0 mm 0.00 in0.0 mm
11:15 AM 78.4°F25.8°C 65.7°F18.7°C 65% 6.2 mph E10.0 kmh E 10.0 mph16.1 kmh 29.83 in1010.2 mb 0.00 in0.0 mm 0.00 in0.0 mm 0.00 in0.0 mm
11:14 AM 78.3°F25.7°C 65.5°F18.6°C 65% 6.2 mph E10.0 kmh E 10.0 mph16.1 kmh 29.83 in1010.2 mb 0.00 in0.0 mm 0.00 in0.0 mm 0.00 in0.0 mm
11:13 AM 78.3°F25.7°C 65.5°F18.6°C 65% 6.3 mph E10.1 kmh E 10.0 mph16.1 kmh 29.83 in1010.2 mb 0.00 in0.0 mm 0.00 in0.0 mm 0.00 in0.0 mm
11:12 AM 78.1°F25.6°C 65.4°F18.6°C 65% 6.1 mph E9.8 kmh E 10.0 mph16.1 kmh 29.83 in1010.2 mb 0.00 in0.0 mm 0.00 in0.0 mm 0.00 in0.0 mm
11:11 AM 78.1°F25.6°C 65.4°F18.6°C 65% 6.2 mph E10.0 kmh E 10.0 mph16.1 kmh 29.83 in1010.2 mb 0.00 in0.0 mm 0.00 in0.0 mm 0.00 in0.0 mm
11:10 AM 78.1°F25.6°C 65.4°F18.6°C 65% 6.7 mph ENE10.8 kmh ENE 10.0 mph16.1 kmh 29.83 in1010.2 mb 0.00 in0.0 mm 0.00 in0.0 mm 0.00 in0.0 mm
11:09 AM 77.9°F25.5°C 65.2°F18.4°C 65% 6.1 mph ENE9.8 kmh ENE 10.0 mph16.1 kmh 29.83 in1010.2 mb 0.00 in0.0 mm 0.00 in0.0 mm 0.00 in0.0 mm
11:08 AM 77.9°F25.5°C 65.2°F18.4°C 65% 5.9 mph ENE9.5 kmh ENE 9.1 mph14.6 kmh 29.83 in1010.2 mb 0.00 in0.0 mm 0.00 in0.0 mm 0.00 in0.0 mm
11:07 AM 77.7°F25.4°C 65.0°F18.3°C 65% 5.8 mph NE9.3 kmh NE 9.1 mph14.6 kmh 29.83 in1010.2 mb 0.00 in0.0 mm 0.00 in0.0 mm 0.00 in0.0 mm
11:06 AM 77.7°F25.4°C 65.0°F18.3°C 65% 5.9 mph NE9.5 kmh NE 9.1 mph14.6 kmh 29.83 in1010.2 mb 0.00 in0.0 mm 0.00 in0.0 mm 0.00 in0.0 mm
11:05 AM 77.5°F25.3°C 64.8°F18.2°C 65% 6.3 mph ENE10.1 kmh ENE 10.3 mph16.6 kmh 29.83 in1010.2 mb 0.00 in0.0 mm 0.00 in0.0 mm 0.00 in0.0 mm
11:04 AM 77.5°F25.3°C 64.8°F18.2°C 65% 6.3 mph ENE10.1 kmh ENE 10.3 mph16.6 kmh 29.83 in1010.2 mb 0.00 in0.0 mm 0.00 in0.0 mm 0.00 in0.0 mm
11:03 AM 77.4°F25.2°C 64.7°F18.2°C 65% 5.8 mph NE9.3 kmh NE 10.3 mph16.6 kmh 29.83 in1010.2 mb 0.00 in0.0 mm 0.00 in0.0 mm 0.00 in0.0 mm
11:02 AM 77.2°F25.1°C 64.5°F18.1°C 65% 6.1 mph NE9.8 kmh NE 10.3 mph16.6 kmh 29.83 in1010.2 mb 0.00 in0.0 mm 0.00 in0.0 mm 0.00 in0.0 mm
11:01 AM 77.2°F25.1°C 64.5°F18.1°C 65% 6.1 mph ENE9.8 kmh ENE 10.3 mph16.6 kmh 29.83 in1010.2 mb 0.00 in0.0 mm 0.00 in0.0 mm 0.00 in0.0 mm
11:00 AM 77.2°F25.1°C 64.5°F18.1°C 65% 6.0 mph ENE9.7 kmh ENE 10.3 mph16.6 kmh 29.83 in1010.2 mb 0.00 in0.0 mm 0.00 in0.0 mm 0.00 in0.0 mm
10:59 AM 77.2°F25.1°C 64.5°F18.1°C 65% 5.9 mph ENE9.5 kmh ENE 10.3 mph16.6 kmh 29.83 in1010.2 mb 0.00 in0.0 mm 0.00 in0.0 mm 0.00 in0.0 mm
10:58 AM 77.0°F25.0°C 64.3°F17.9°C 65% 5.9 mph ENE9.5 kmh ENE 10.3 mph16.6 kmh 29.83 in1010.2 mb 0.00 in0.0 mm 0.00 in0.0 mm 0.00 in0.0 mm
10:57 AM 77.0°F25.0°C 64.3°F17.9°C 65% 5.8 mph ENE9.3 kmh ENE 10.3 mph16.6 kmh 29.83 in1010.2 mb 0.00 in0.0 mm 0.00 in0.0 mm 0.00 in0.0 mm
10:56 AM 76.6°F24.8°C 64.0°F17.8°C 65% 5.9 mph E9.5 kmh E 10.3 mph16.6 kmh 29.83 in1010.2 mb 0.00 in0.0 mm 0.00 in0.0 mm 0.00 in0.0 mm
10:55 AM 76.3°F24.6°C 63.6°F17.6°C 65% 6.1 mph E9.8 kmh E 10.3 mph16.6 kmh 29.83 in1010.2 mb 0.00 in0.0 mm 0.00 in0.0 mm 0.00 in0.0 mm
10:54 AM 76.3°F24.6°C 63.6°F17.6°C 65% 6.1 mph E9.8 kmh E 9.4 mph15.1 kmh 29.83 in1010.2 mb 0.00 in0.0 mm 0.00 in0.0 mm 0.00 in0.0 mm
10:53 AM 76.3°F24.6°C 63.6°F17.6°C 65% 6.4 mph E10.3 kmh E 9.4 mph15.1 kmh 29.83 in1010.2 mb 0.00 in0.0 mm 0.00 in0.0 mm 0.00 in0.0 mm
10:52 AM 76.3°F24.6°C 63.6°F17.6°C 65% 6.5 mph E10.5 kmh E 9.1 mph14.6 kmh 29.83 in1010.2 mb 0.00 in0.0 mm 0.00 in0.0 mm 0.00 in0.0 mm
10:51 AM 76.3°F24.6°C 63.6°F17.6°C 65% 6.8 mph E10.9 kmh E 9.1 mph14.6 kmh 29.83 in1010.2 mb 0.00 in0.0 mm 0.00 in0.0 mm 0.00 in0.0 mm
10:50 AM 76.3°F24.6°C 63.6°F17.6°C 65% 7.0 mph E11.3 kmh E 9.1 mph14.6 kmh 29.83 in1010.2 mb 0.00 in0.0 mm 0.00 in0.0 mm 0.00 in0.0 mm
10:49 AM 76.1°F24.5°C 63.5°F17.5°C 65% 6.4 mph E10.3 kmh E 9.1 mph14.6 kmh 29.83 in1010.2 mb 0.00 in0.0 mm 0.00 in0.0 mm 0.00 in0.0 mm
10:48 AM 75.9°F24.4°C 63.3°F17.4°C 65% 6.4 mph E10.3 kmh E 9.1 mph14.6 kmh 29.83 in1010.2 mb 0.00 in0.0 mm 0.00 in0.0 mm 0.00 in0.0 mm
10:47 AM 75.9°F24.4°C 63.3°F17.4°C 65% 6.7 mph E10.8 kmh E 9.1 mph14.6 kmh 29.83 in1010.2 mb 0.00 in0.0 mm 0.00 in0.0 mm 0.00 in0.0 mm
10:46 AM 75.7°F24.3°C 63.1°F17.3°C 65% 6.9 mph E11.1 kmh E 9.1 mph14.6 kmh 29.83 in1010.2 mb 0.00 in0.0 mm 0.00 in0.0 mm 0.00 in0.0 mm
10:45 AM 75.7°F24.3°C 63.1°F17.3°C 65% 7.0 mph E11.3 kmh E 9.1 mph14.6 kmh 29.83 in1010.2 mb 0.00 in0.0 mm 0.00 in0.0 mm 0.00 in0.0 mm
10:44 AM 75.6°F24.2°C 63.0°F17.2°C 65% 6.6 mph E10.6 kmh E 8.5 mph13.7 kmh 29.83 in1010.2 mb 0.00 in0.0 mm 0.00 in0.0 mm 0.00 in0.0 mm
10:43 AM 75.6°F24.2°C 63.0°F17.2°C 65% 6.4 mph E10.3 kmh E 8.1 mph13.0 kmh 29.83 in1010.2 mb 0.00 in0.0 mm 0.00 in0.0 mm 0.00 in0.0 mm
10:42 AM 75.4°F24.1°C 63.2°F17.3°C 66% 6.1 mph ENE9.8 kmh ENE 8.1 mph13.0 kmh 29.83 in1010.2 mb 0.00 in0.0 mm 0.00 in0.0 mm 0.00 in0.0 mm
10:41 AM 75.4°F24.1°C 63.2°F17.3°C 66% 6.0 mph ENE9.7 kmh ENE 8.1 mph13.0 kmh 29.83 in1010.2 mb 0.00 in0.0 mm 0.00 in0.0 mm 0.00 in0.0 mm
10:40 AM 75.2°F24.0°C 63.1°F17.3°C 66% 5.7 mph ENE9.2 kmh ENE 8.1 mph13.0 kmh 29.83 in1010.2 mb 0.00 in0.0 mm 0.00 in0.0 mm 0.00 in0.0 mm
10:39 AM 75.2°F24.0°C 63.1°F17.3°C 66% 5.8 mph ENE9.3 kmh ENE 8.1 mph13.0 kmh 29.83 in1010.2 mb 0.00 in0.0 mm 0.00 in0.0 mm 0.00 in0.0 mm
10:38 AM 75.2°F24.0°C 63.1°F17.3°C 66% 6.2 mph ENE10.0 kmh ENE 8.8 mph14.2 kmh 29.83 in1010.2 mb 0.00 in0.0 mm 0.00 in0.0 mm 0.00 in0.0 mm
10:37 AM 75.0°F23.9°C 62.9°F17.2°C 66% 6.0 mph ENE9.7 kmh ENE 8.8 mph14.2 kmh 29.83 in1010.2 mb 0.00 in0.0 mm 0.00 in0.0 mm 0.00 in0.0 mm
10:36 AM 75.0°F23.9°C 62.9°F17.2°C 66% 6.1 mph NE9.8 kmh NE 8.8 mph14.2 kmh 29.83 in1010.2 mb 0.00 in0.0 mm 0.00 in0.0 mm 0.00 in0.0 mm
10:35 AM 74.8°F23.8°C 62.7°F17.1°C 66% 5.6 mph NE9.0 kmh NE 8.8 mph14.2 kmh 29.83 in1010.2 mb 0.00 in0.0 mm 0.00 in0.0 mm 0.00 in0.0 mm
10:34 AM 74.8°F23.8°C 62.7°F17.1°C 66% 5.3 mph NE8.5 kmh NE 8.8 mph14.2 kmh 29.83 in1010.2 mb 0.00 in0.0 mm 0.00 in0.0 mm 0.00 in0.0 mm
10:33 AM 74.8°F23.8°C 62.7°F17.1°C 66% 5.4 mph NE8.7 kmh NE 8.8 mph14.2 kmh 29.83 in1010.2 mb 0.00 in0.0 mm 0.00 in0.0 mm 0.00 in0.0 mm
10:32 AM 74.7°F23.7°C 62.5°F16.9°C 66% 5.4 mph NE8.7 kmh NE 8.8 mph14.2 kmh 29.83 in1010.2 mb 0.00 in0.0 mm 0.00 in0.0 mm 0.00 in0.0 mm
10:31 AM 74.7°F23.7°C 62.5°F16.9°C 66% 5.4 mph NE8.7 kmh NE 8.8 mph14.2 kmh 29.83 in1010.2 mb 0.00 in0.0 mm 0.00 in0.0 mm 0.00 in0.0 mm
10:30 AM 74.5°F23.6°C 62.4°F16.9°C 66% 5.6 mph ENE9.0 kmh ENE 9.1 mph14.6 kmh 29.83 in1010.2 mb 0.00 in0.0 mm 0.00 in0.0 mm 0.00 in0.0 mm
10:29 AM 74.5°F23.6°C 62.4°F16.9°C 66% 5.6 mph ENE9.0 kmh ENE 9.1 mph14.6 kmh 29.83 in1010.2 mb 0.00 in0.0 mm 0.00 in0.0 mm 0.00 in0.0 mm
10:28 AM 74.5°F23.6°C 62.4°F16.9°C 66% 5.7 mph NE9.2 kmh NE 10.0 mph16.1 kmh 29.83 in1010.2 mb 0.00 in0.0 mm 0.00 in0.0 mm 0.00 in0.0 mm
10:27 AM 74.5°F23.6°C 62.4°F16.9°C 66% 5.7 mph NE9.2 kmh NE 10.0 mph16.1 kmh 29.83 in1010.2 mb 0.00 in0.0 mm 0.00 in0.0 mm 0.00 in0.0 mm
10:26 AM 74.5°F23.6°C 62.4°F16.9°C 66% 6.1 mph ENE9.8 kmh ENE 10.0 mph16.1 kmh 29.83 in1010.2 mb 0.00 in0.0 mm 0.00 in0.0 mm 0.00 in0.0 mm
10:25 AM 74.3°F23.5°C 62.2°F16.8°C 66% 6.6 mph ENE10.6 kmh ENE 10.0 mph16.1 kmh 29.83 in1010.2 mb 0.00 in0.0 mm 0.00 in0.0 mm 0.00 in0.0 mm
10:24 AM 74.3°F23.5°C 62.2°F16.8°C 66% 6.7 mph ENE10.8 kmh ENE 10.0 mph16.1 kmh 29.83 in1010.2 mb 0.00 in0.0 mm 0.00 in0.0 mm 0.00 in0.0 mm
10:23 AM 74.1°F23.4°C 62.0°F16.7°C 66% 6.8 mph ENE10.9 kmh ENE 10.0 mph16.1 kmh 29.83 in1010.2 mb 0.00 in0.0 mm 0.00 in0.0 mm 0.00 in0.0 mm
10:22 AM 74.1°F23.4°C 62.0°F16.7°C 66% 6.9 mph E11.1 kmh E 10.0 mph16.1 kmh 29.83 in1010.2 mb 0.00 in0.0 mm 0.00 in0.0 mm 0.00 in0.0 mm
10:21 AM 74.1°F23.4°C 62.0°F16.7°C 66% 7.0 mph E11.3 kmh E 10.0 mph16.1 kmh 29.83 in1010.2 mb 0.00 in0.0 mm 0.00 in0.0 mm 0.00 in0.0 mm
10:20 AM 74.1°F23.4°C 62.0°F16.7°C 66% 7.1 mph E11.4 kmh E 10.0 mph16.1 kmh 29.83 in1010.2 mb 0.00 in0.0 mm 0.00 in0.0 mm 0.00 in0.0 mm
10:19 AM 73.9°F23.3°C 61.9°F16.6°C 66% 7.2 mph E11.6 kmh E 10.0 mph16.1 kmh 29.83 in1010.2 mb 0.00 in0.0 mm 0.00 in0.0 mm 0.00 in0.0 mm
10:18 AM 73.9°F23.3°C 61.9°F16.6°C 66% 7.4 mph ENE11.9 kmh ENE 10.0 mph16.1 kmh 29.83 in1010.2 mb 0.00 in0.0 mm 0.00 in0.0 mm 0.00 in0.0 mm
10:17 AM 73.8°F23.2°C 62.1°F16.7°C 67% 7.2 mph E11.6 kmh E 10.0 mph16.1 kmh 29.83 in1010.2 mb 0.00 in0.0 mm 0.00 in0.0 mm 0.00 in0.0 mm
10:16 AM 73.6°F23.1°C 61.9°F16.6°C 67% 6.9 mph E11.1 kmh E 10.0 mph16.1 kmh 29.83 in1010.2 mb 0.00 in0.0 mm 0.00 in0.0 mm 0.00 in0.0 mm
10:15 AM 73.6°F23.1°C 61.9°F16.6°C 67% 7.1 mph E11.4 kmh E 9.1 mph14.6 kmh 29.83 in1010.2 mb 0.00 in0.0 mm 0.00 in0.0 mm 0.00 in0.0 mm
10:14 AM 73.6°F23.1°C 61.9°F16.6°C 67% 7.1 mph E11.4 kmh E 9.1 mph14.6 kmh 29.83 in1010.2 mb 0.00 in0.0 mm 0.00 in0.0 mm 0.00 in0.0 mm
10:13 AM 73.6°F23.1°C 61.9°F16.6°C 67% 7.5 mph E12.1 kmh E 9.1 mph14.6 kmh 29.83 in1010.2 mb 0.00 in0.0 mm 0.00 in0.0 mm 0.00 in0.0 mm
10:12 AM 73.4°F23.0°C 61.3°F16.3°C 66% 7.4 mph E11.9 kmh E 9.1 mph14.6 kmh 29.83 in1010.2 mb 0.00 in0.0 mm 0.00 in0.0 mm 0.00 in0.0 mm
10:11 AM 73.4°F23.0°C 61.3°F16.3°C 66% 7.4 mph E11.9 kmh E 9.1 mph14.6 kmh 29.83 in1010.2 mb 0.00 in0.0 mm 0.00 in0.0 mm 0.00 in0.0 mm
10:10 AM 73.2°F22.9°C 61.6°F16.4°C 67% 6.9 mph E11.1 kmh E 9.1 mph14.6 kmh 29.83 in1010.2 mb 0.00 in0.0 mm 0.00 in0.0 mm 0.00 in0.0 mm
10:09 AM 73.0°F22.8°C 61.4°F16.3°C 67% 6.5 mph E10.5 kmh E 9.1 mph14.6 kmh 29.83 in1010.2 mb 0.00 in0.0 mm 0.00 in0.0 mm 0.00 in0.0 mm
10:08 AM 73.0°F22.8°C 61.4°F16.3°C 67% 6.4 mph E10.3 kmh E 9.1 mph14.6 kmh 29.83 in1010.2 mb 0.00 in0.0 mm 0.00 in0.0 mm 0.00 in0.0 mm
10:07 AM 72.9°F22.7°C 61.3°F16.3°C 67% 6.2 mph E10.0 kmh E 9.1 mph14.6 kmh 29.83 in1010.2 mb 0.00 in0.0 mm 0.00 in0.0 mm 0.00 in0.0 mm
10:06 AM 72.9°F22.7°C 61.3°F16.3°C 67% 6.1 mph E9.8 kmh E 9.1 mph14.6 kmh 29.83 in1010.2 mb 0.00 in0.0 mm 0.00 in0.0 mm 0.00 in0.0 mm
10:05 AM 72.7°F22.6°C 61.1°F16.2°C 67% 5.4 mph E8.7 kmh E 8.5 mph13.7 kmh 29.83 in1010.2 mb 0.00 in0.0 mm 0.00 in0.0 mm 0.00 in0.0 mm
10:04 AM 72.7°F22.6°C 61.1°F16.2°C 67% 5.2 mph E8.4 kmh E 8.5 mph13.7 kmh 29.83 in1010.2 mb 0.00 in0.0 mm 0.00 in0.0 mm 0.00 in0.0 mm
10:03 AM 72.5°F22.5°C 60.9°F16.1°C 67% 5.2 mph E8.4 kmh E 9.1 mph14.6 kmh 29.83 in1010.2 mb 0.00 in0.0 mm 0.00 in0.0 mm 0.00 in0.0 mm
10:02 AM 72.5°F22.5°C 60.9°F16.1°C 67% 5.0 mph E8.0 kmh E 9.1 mph14.6 kmh 29.83 in1010.2 mb 0.00 in0.0 mm 0.00 in0.0 mm 0.00 in0.0 mm
10:01 AM 72.5°F22.5°C 60.9°F16.1°C 67% 4.8 mph E7.7 kmh E 9.1 mph14.6 kmh 29.83 in1010.2 mb 0.00 in0.0 mm 0.00 in0.0 mm 0.00 in0.0 mm
10:00 AM 72.3°F22.4°C 60.7°F15.9°C 67% 5.0 mph E8.0 kmh E 9.1 mph14.6 kmh 29.83 in1010.2 mb 0.00 in0.0 mm 0.00 in0.0 mm 0.00 in0.0 mm
09:59 AM 72.3°F22.4°C 60.7°F15.9°C 67% 5.2 mph E8.4 kmh E 9.1 mph14.6 kmh 29.83 in1010.2 mb 0.00 in0.0 mm 0.00 in0.0 mm 0.00 in0.0 mm
09:58 AM 72.1°F22.3°C 60.6°F15.9°C 67% 5.5 mph ENE8.9 kmh ENE 9.1 mph14.6 kmh 29.83 in1010.2 mb 0.00 in0.0 mm 0.00 in0.0 mm 0.00 in0.0 mm
09:57 AM 72.1°F22.3°C 60.6°F15.9°C 67% 5.7 mph ENE9.2 kmh ENE 9.1 mph14.6 kmh 29.83 in1010.2 mb 0.00 in0.0 mm 0.00 in0.0 mm 0.00 in0.0 mm
09:56 AM 72.1°F22.3°C 60.6°F15.9°C 67% 6.2 mph ENE10.0 kmh ENE 9.1 mph14.6 kmh 29.83 in1010.2 mb 0.00 in0.0 mm 0.00 in0.0 mm 0.00 in0.0 mm
09:55 AM 72.0°F22.2°C 60.4°F15.8°C 67% 6.2 mph ENE10.0 kmh ENE 9.1 mph14.6 kmh 29.83 in1010.2 mb 0.00 in0.0 mm 0.00 in0.0 mm 0.00 in0.0 mm
09:54 AM 72.0°F22.2°C 60.4°F15.8°C 67% 6.6 mph ENE10.6 kmh ENE 9.1 mph14.6 kmh 29.83 in1010.2 mb 0.00 in0.0 mm 0.00 in0.0 mm 0.00 in0.0 mm
09:53 AM 71.8°F22.1°C 60.2°F15.7°C 67% 6.6 mph E10.6 kmh E 9.1 mph14.6 kmh 29.83 in1010.2 mb 0.00 in0.0 mm 0.00 in0.0 mm 0.00 in0.0 mm
09:52 AM 71.8°F22.1°C 60.2°F15.7°C 67% 6.6 mph E10.6 kmh E 8.1 mph13.0 kmh 29.83 in1010.2 mb 0.00 in0.0 mm 0.00 in0.0 mm 0.00 in0.0 mm
09:51 AM 71.8°F22.1°C 60.2°F15.7°C 67% 7.3 mph E11.7 kmh E 8.8 mph14.2 kmh 29.83 in1010.2 mb 0.00 in0.0 mm 0.00 in0.0 mm 0.00 in0.0 mm
09:50 AM 71.8°F22.1°C 60.2°F15.7°C 67% 7.4 mph E11.9 kmh E 8.8 mph14.2 kmh 29.83 in1010.2 mb 0.00 in0.0 mm 0.00 in0.0 mm 0.00 in0.0 mm
09:49 AM 71.6°F22.0°C 60.1°F15.6°C 67% 6.7 mph E10.8 kmh E 8.8 mph14.2 kmh 29.83 in1010.2 mb 0.00 in0.0 mm 0.00 in0.0 mm 0.00 in0.0 mm
09:48 AM 71.6°F22.0°C 60.1°F15.6°C 67% 6.6 mph E10.6 kmh E 8.8 mph14.2 kmh 29.83 in1010.2 mb 0.00 in0.0 mm 0.00 in0.0 mm 0.00 in0.0 mm
09:47 AM 71.4°F21.9°C 60.3°F15.7°C 68% 6.1 mph E9.8 kmh E 8.8 mph14.2 kmh 29.83 in1010.2 mb 0.00 in0.0 mm 0.00 in0.0 mm 0.00 in0.0 mm
09:46 AM 71.4°F21.9°C 60.3°F15.7°C 68% 6.0 mph E9.7 kmh E 8.8 mph14.2 kmh 29.83 in1010.2 mb 0.00 in0.0 mm 0.00 in0.0 mm 0.00 in0.0 mm
09:45 AM 71.4°F21.9°C 60.3°F15.7°C 68% 5.9 mph E9.5 kmh E 8.8 mph14.2 kmh 29.83 in1010.2 mb 0.00 in0.0 mm 0.00 in0.0 mm 0.00 in0.0 mm
09:44 AM 71.2°F21.8°C 60.1°F15.6°C 68% 5.7 mph E9.2 kmh E 8.8 mph14.2 kmh 29.83 in1010.2 mb 0.00 in0.0 mm 0.00 in0.0 mm 0.00 in0.0 mm
09:43 AM 71.2°F21.8°C 60.1°F15.6°C 68% 5.5 mph E8.9 kmh E 8.8 mph14.2 kmh 29.83 in1010.2 mb 0.00 in0.0 mm 0.00 in0.0 mm 0.00 in0.0 mm
09:42 AM 71.2°F21.8°C 60.1°F15.6°C 68% 5.5 mph E8.9 kmh E 8.8 mph14.2 kmh 29.83 in1010.2 mb 0.00 in0.0 mm 0.00 in0.0 mm 0.00 in0.0 mm
09:41 AM 71.2°F21.8°C 60.1°F15.6°C 68% 5.5 mph E8.9 kmh E 8.8 mph14.2 kmh 29.83 in1010.2 mb 0.00 in0.0 mm 0.00 in0.0 mm 0.00 in0.0 mm
09:40 AM 71.1°F21.7°C 60.0°F15.6°C 68% 5.2 mph ENE8.4 kmh ENE 8.8 mph14.2 kmh 29.83 in1010.2 mb 0.00 in0.0 mm 0.00 in0.0 mm 0.00 in0.0 mm
09:39 AM 70.9°F21.6°C 59.8°F15.4°C 68% 5.8 mph ENE9.3 kmh ENE 8.8 mph14.2 kmh 29.83 in1010.2 mb 0.00 in0.0 mm 0.00 in0.0 mm 0.00 in0.0 mm
09:38 AM 70.9°F21.6°C 59.8°F15.4°C 68% 6.3 mph ENE10.1 kmh ENE 11.0 mph17.7 kmh 29.83 in1010.2 mb 0.00 in0.0 mm 0.00 in0.0 mm 0.00 in0.0 mm
09:37 AM 70.9°F21.6°C 59.8°F15.4°C 68% 6.7 mph E10.8 kmh E 11.0 mph17.7 kmh 29.83 in1010.2 mb 0.00 in0.0 mm 0.00 in0.0 mm 0.00 in0.0 mm
09:36 AM 70.9°F21.6°C 59.8°F15.4°C 68% 6.9 mph E11.1 kmh E 11.0 mph17.7 kmh 29.83 in1010.2 mb 0.00 in0.0 mm 0.00 in0.0 mm 0.00 in0.0 mm
09:35 AM 70.9°F21.6°C 59.8°F15.4°C 68% 6.9 mph E11.1 kmh E 11.0 mph17.7 kmh 29.83 in1010.2 mb 0.00 in0.0 mm 0.00 in0.0 mm 0.00 in0.0 mm
09:34 AM 70.9°F21.6°C 59.8°F15.4°C 68% 6.9 mph E11.1 kmh E 11.0 mph17.7 kmh 29.83 in1010.2 mb 0.00 in0.0 mm 0.00 in0.0 mm 0.00 in0.0 mm
09:33 AM 70.9°F21.6°C 59.8°F15.4°C 68% 7.3 mph E11.7 kmh E 11.0 mph17.7 kmh 29.83 in1010.2 mb 0.00 in0.0 mm 0.00 in0.0 mm 0.00 in0.0 mm
09:32 AM 70.7°F21.5°C 59.6°F15.3°C 68% 7.3 mph E11.7 kmh E 11.0 mph17.7 kmh 29.83 in1010.2 mb 0.00 in0.0 mm 0.00 in0.0 mm 0.00 in0.0 mm
09:31 AM 70.7°F21.5°C 59.6°F15.3°C 68% 7.2 mph E11.6 kmh E 11.0 mph17.7 kmh 29.83 in1010.2 mb 0.00 in0.0 mm 0.00 in0.0 mm 0.00 in0.0 mm
09:30 AM 70.7°F21.5°C 59.6°F15.3°C 68% 7.1 mph E11.4 kmh E 11.0 mph17.7 kmh 29.83 in1010.2 mb 0.00 in0.0 mm 0.00 in0.0 mm 0.00 in0.0 mm
09:29 AM 70.7°F21.5°C 59.6°F15.3°C 68% 7.1 mph E11.4 kmh E 11.0 mph17.7 kmh 29.83 in1010.2 mb 0.00 in0.0 mm 0.00 in0.0 mm 0.00 in0.0 mm
09:28 AM 70.7°F21.5°C 59.6°F15.3°C 68% 6.8 mph E10.9 kmh E 9.1 mph14.6 kmh 29.83 in1010.2 mb 0.00 in0.0 mm 0.00 in0.0 mm 0.00 in0.0 mm
09:27 AM 70.7°F21.5°C 59.6°F15.3°C 68% 6.6 mph E10.6 kmh E 9.1 mph14.6 kmh 29.83 in1010.2 mb 0.00 in0.0 mm 0.00 in0.0 mm 0.00 in0.0 mm
09:26 AM 70.5°F21.4°C 59.4°F15.2°C 68% 6.7 mph E10.8 kmh E 9.1 mph14.6 kmh 29.83 in1010.2 mb 0.00 in0.0 mm 0.00 in0.0 mm 0.00 in0.0 mm
09:25 AM 70.5°F21.4°C 59.4°F15.2°C 68% 6.6 mph E10.6 kmh E 9.1 mph14.6 kmh 29.83 in1010.2 mb 0.00 in0.0 mm 0.00 in0.0 mm 0.00 in0.0 mm
09:24 AM 70.5°F21.4°C 59.4°F15.2°C 68% 7.1 mph E11.4 kmh E 9.1 mph14.6 kmh 29.83 in1010.2 mb 0.00 in0.0 mm 0.00 in0.0 mm 0.00 in0.0 mm
09:23 AM 70.5°F21.4°C 59.4°F15.2°C 68% 6.9 mph E11.1 kmh E 9.1 mph14.6 kmh 29.83 in1010.2 mb 0.00 in0.0 mm 0.00 in0.0 mm 0.00 in0.0 mm
09:22 AM 70.5°F21.4°C 59.4°F15.2°C 68% 6.5 mph E10.5 kmh E 8.5 mph13.7 kmh 29.83 in1010.2 mb 0.00 in0.0 mm 0.00 in0.0 mm 0.00 in0.0 mm
09:21 AM 70.3°F21.3°C 59.3°F15.2°C 68% 6.6 mph E10.6 kmh E 8.5 mph13.7 kmh 29.83 in1010.2 mb 0.00 in0.0 mm 0.00 in0.0 mm 0.00 in0.0 mm
09:20 AM 70.3°F21.3°C 59.3°F15.2°C 68% 6.8 mph E10.9 kmh E 8.5 mph13.7 kmh 29.83 in1010.2 mb 0.00 in0.0 mm 0.00 in0.0 mm 0.00 in0.0 mm
09:19 AM 70.3°F21.3°C 59.3°F15.2°C 68% 6.8 mph E10.9 kmh E 8.5 mph13.7 kmh 29.83 in1010.2 mb 0.00 in0.0 mm 0.00 in0.0 mm 0.00 in0.0 mm
09:18 AM 70.3°F21.3°C 59.3°F15.2°C 68% 6.7 mph E10.8 kmh E 8.5 mph13.7 kmh 29.83 in1010.2 mb 0.00 in0.0 mm 0.00 in0.0 mm 0.00 in0.0 mm
09:17 AM 70.3°F21.3°C 59.7°F15.4°C 69% 7.2 mph E11.6 kmh E 10.3 mph16.6 kmh 29.83 in1010.2 mb 0.00 in0.0 mm 0.00 in0.0 mm 0.00 in0.0 mm
09:16 AM 70.3°F21.3°C 59.7°F15.4°C 69% 7.2 mph E11.6 kmh E 10.3 mph16.6 kmh 29.83 in1010.2 mb 0.00 in0.0 mm 0.00 in0.0 mm 0.00 in0.0 mm
09:15 AM 70.3°F21.3°C 59.7°F15.4°C 69% 7.1 mph E11.4 kmh E 11.3 mph18.2 kmh 29.83 in1010.2 mb 0.00 in0.0 mm 0.00 in0.0 mm 0.00 in0.0 mm
09:14 AM 70.2°F21.2°C 59.5°F15.3°C 69% 7.3 mph E11.7 kmh E 11.3 mph18.2 kmh 29.83 in1010.2 mb 0.00 in0.0 mm 0.00 in0.0 mm 0.00 in0.0 mm
09:13 AM 70.2°F21.2°C 59.5°F15.3°C 69% 7.6 mph E12.2 kmh E 11.3 mph18.2 kmh 29.83 in1010.2 mb 0.00 in0.0 mm 0.00 in0.0 mm 0.00 in0.0 mm
09:12 AM 70.2°F21.2°C 59.5°F15.3°C 69% 7.7 mph ENE12.4 kmh ENE 11.3 mph18.2 kmh 29.83 in1010.2 mb 0.00 in0.0 mm 0.00 in0.0 mm 0.00 in0.0 mm
09:11 AM 70.2°F21.2°C 59.5°F15.3°C 69% 7.8 mph ENE12.6 kmh ENE 11.3 mph18.2 kmh 29.83 in1010.2 mb 0.00 in0.0 mm 0.00 in0.0 mm 0.00 in0.0 mm
09:10 AM 70.2°F21.2°C 59.5°F15.3°C 69% 7.8 mph ENE12.6 kmh ENE 11.3 mph18.2 kmh 29.83 in1010.2 mb 0.00 in0.0 mm 0.00 in0.0 mm 0.00 in0.0 mm
09:09 AM 70.0°F21.1°C 59.3°F15.2°C 69% 7.9 mph ENE12.7 kmh ENE 11.3 mph18.2 kmh 29.83 in1010.2 mb 0.00 in0.0 mm 0.00 in0.0 mm 0.00 in0.0 mm
09:08 AM 70.0°F21.1°C 59.3°F15.2°C 69% 8.0 mph ENE12.9 kmh ENE 11.3 mph18.2 kmh 29.83 in1010.2 mb 0.00 in0.0 mm 0.00 in0.0 mm 0.00 in0.0 mm
09:07 AM 70.0°F21.1°C 59.3°F15.2°C 69% 7.6 mph ENE12.2 kmh ENE 11.3 mph18.2 kmh 29.83 in1010.2 mb 0.00 in0.0 mm 0.00 in0.0 mm 0.00 in0.0 mm
09:06 AM 70.0°F21.1°C 59.3°F15.2°C 69% 7.3 mph ENE11.7 kmh ENE 11.3 mph18.2 kmh 29.83 in1010.2 mb 0.00 in0.0 mm 0.00 in0.0 mm 0.00 in0.0 mm
09:05 AM 70.0°F21.1°C 59.3°F15.2°C 69% 7.2 mph ENE11.6 kmh ENE 11.3 mph18.2 kmh 29.83 in1010.2 mb 0.00 in0.0 mm 0.00 in0.0 mm 0.00 in0.0 mm
09:04 AM 70.0°F21.1°C 59.3°F15.2°C 69% 6.9 mph ENE11.1 kmh ENE 10.0 mph16.1 kmh 29.83 in1010.2 mb 0.00 in0.0 mm 0.00 in0.0 mm 0.00 in0.0 mm
09:03 AM 69.8°F21.0°C 59.2°F15.1°C 69% 6.7 mph ENE10.8 kmh ENE 8.8 mph14.2 kmh 29.83 in1010.2 mb 0.00 in0.0 mm 0.00 in0.0 mm 0.00 in0.0 mm
09:02 AM 69.8°F21.0°C 59.2°F15.1°C 69% 6.5 mph ENE10.5 kmh ENE 8.8 mph14.2 kmh 29.83 in1010.2 mb 0.00 in0.0 mm 0.00 in0.0 mm 0.00 in0.0 mm
09:01 AM 69.8°F21.0°C 59.2°F15.1°C 69% 6.7 mph E10.8 kmh E 8.8 mph14.2 kmh 29.83 in1010.2 mb 0.00 in0.0 mm 0.00 in0.0 mm 0.00 in0.0 mm
09:00 AM 69.6°F20.9°C 59.0°F15.0°C 69% 6.8 mph E10.9 kmh E 9.1 mph14.6 kmh 29.83 in1010.2 mb 0.00 in0.0 mm 0.00 in0.0 mm 0.00 in0.0 mm
08:59 AM 69.6°F20.9°C 59.0°F15.0°C 69% 6.8 mph E10.9 kmh E 9.1 mph14.6 kmh 29.83 in1010.2 mb 0.00 in0.0 mm 0.00 in0.0 mm 0.00 in0.0 mm
08:58 AM 69.6°F20.9°C 59.0°F15.0°C 69% 6.8 mph E10.9 kmh E 9.1 mph14.6 kmh 29.83 in1010.2 mb 0.00 in0.0 mm 0.00 in0.0 mm 0.00 in0.0 mm
08:57 AM 69.6°F20.9°C 59.0°F15.0°C 69% 7.3 mph E11.7 kmh E 11.0 mph17.7 kmh 29.83 in1010.2 mb 0.00 in0.0 mm 0.00 in0.0 mm 0.00 in0.0 mm
08:56 AM 69.4°F20.8°C 58.8°F14.9°C 69% 8.4 mph E13.5 kmh E 13.5 mph21.7 kmh 29.83 in1010.2 mb 0.00 in0.0 mm 0.00 in0.0 mm 0.00 in0.0 mm
08:55 AM 69.4°F20.8°C 58.8°F14.9°C 69% 8.5 mph E13.7 kmh E 13.5 mph21.7 kmh 29.83 in1010.2 mb 0.00 in0.0 mm 0.00 in0.0 mm 0.00 in0.0 mm
08:54 AM 69.3°F20.7°C 58.7°F14.8°C 69% 8.5 mph E13.7 kmh E 13.5 mph21.7 kmh 29.83 in1010.2 mb 0.00 in0.0 mm 0.00 in0.0 mm 0.00 in0.0 mm
08:53 AM 69.3°F20.7°C 58.7°F14.8°C 69% 8.6 mph E13.8 kmh E 13.5 mph21.7 kmh 29.83 in1010.2 mb 0.00 in0.0 mm 0.00 in0.0 mm 0.00 in0.0 mm
08:52 AM 69.3°F20.7°C 58.7°F14.8°C 69% 9.1 mph E14.6 kmh E 13.8 mph22.2 kmh 29.83 in1010.2 mb 0.00 in0.0 mm 0.00 in0.0 mm 0.00 in0.0 mm
08:51 AM 69.1°F20.6°C 58.5°F14.7°C 69% 9.4 mph E15.1 kmh E 13.8 mph22.2 kmh 29.83 in1010.2 mb 0.00 in0.0 mm 0.00 in0.0 mm 0.00 in0.0 mm
08:50 AM 69.1°F20.6°C 58.5°F14.7°C 69% 9.4 mph E15.1 kmh E 13.8 mph22.2 kmh 29.83 in1010.2 mb 0.00 in0.0 mm 0.00 in0.0 mm 0.00 in0.0 mm
08:49 AM 69.1°F20.6°C 58.5°F14.7°C 69% 9.1 mph E14.6 kmh E 13.8 mph22.2 kmh 29.83 in1010.2 mb 0.00 in0.0 mm 0.00 in0.0 mm 0.00 in0.0 mm
08:48 AM 69.1°F20.6°C 58.5°F14.7°C 69% 9.1 mph E14.6 kmh E 13.8 mph22.2 kmh 29.83 in1010.2 mb 0.00 in0.0 mm 0.00 in0.0 mm 0.00 in0.0 mm
08:47 AM 68.9°F20.5°C 58.3°F14.6°C 69% 8.8 mph E14.2 kmh E 13.8 mph22.2 kmh 29.83 in1010.2 mb 0.00 in0.0 mm 0.00 in0.0 mm 0.00 in0.0 mm
08:46 AM 68.7°F20.4°C 58.5°F14.7°C 70% 8.6 mph E13.8 kmh E 13.8 mph22.2 kmh 29.83 in1010.2 mb 0.00 in0.0 mm 0.00 in0.0 mm 0.00 in0.0 mm
08:45 AM 68.7°F20.4°C 58.5°F14.7°C 70% 8.3 mph E13.4 kmh E 13.8 mph22.2 kmh 29.83 in1010.2 mb 0.00 in0.0 mm 0.00 in0.0 mm 0.00 in0.0 mm
08:44 AM 68.5°F20.3°C 58.4°F14.7°C 70% 8.5 mph E13.7 kmh E 13.8 mph22.2 kmh 29.83 in1010.2 mb 0.00 in0.0 mm 0.00 in0.0 mm 0.00 in0.0 mm
08:43 AM 68.5°F20.3°C 58.4°F14.7°C 70% 8.5 mph E13.7 kmh E 13.8 mph22.2 kmh 29.83 in1010.2 mb 0.00 in0.0 mm 0.00 in0.0 mm 0.00 in0.0 mm
08:42 AM 68.5°F20.3°C 58.4°F14.7°C 70% 8.6 mph E13.8 kmh E 13.8 mph22.2 kmh 29.83 in1010.2 mb 0.00 in0.0 mm 0.00 in0.0 mm 0.00 in0.0 mm
08:41 AM 68.5°F20.3°C 58.4°F14.7°C 70% 8.1 mph E13.0 kmh E 11.9 mph19.2 kmh 29.83 in1010.2 mb 0.00 in0.0 mm 0.00 in0.0 mm 0.00 in0.0 mm
08:40 AM 68.4°F20.2°C 58.2°F14.6°C 70% 7.7 mph E12.4 kmh E 11.9 mph19.2 kmh 29.83 in1010.2 mb 0.00 in0.0 mm 0.00 in0.0 mm 0.00 in0.0 mm
08:39 AM 68.4°F20.2°C 58.2°F14.6°C 70% 7.3 mph E11.7 kmh E 11.0 mph17.7 kmh 29.83 in1010.2 mb 0.00 in0.0 mm 0.00 in0.0 mm 0.00 in0.0 mm
08:38 AM 68.4°F20.2°C 58.2°F14.6°C 70% 7.8 mph E12.6 kmh E 11.0 mph17.7 kmh 29.83 in1010.2 mb 0.00 in0.0 mm 0.00 in0.0 mm 0.00 in0.0 mm
08:37 AM 68.2°F20.1°C 58.0°F14.4°C 70% 8.0 mph E12.9 kmh E 11.0 mph17.7 kmh 29.83 in1010.2 mb 0.00 in0.0 mm 0.00 in0.0 mm 0.00 in0.0 mm
08:36 AM 68.2°F20.1°C 58.0°F14.4°C 70% 8.2 mph E13.2 kmh E 11.0 mph17.7 kmh 29.83 in1010.2 mb 0.00 in0.0 mm 0.00 in0.0 mm 0.00 in0.0 mm
08:35 AM 68.2°F20.1°C 58.0°F14.4°C 70% 8.5 mph ENE13.7 kmh ENE 11.9 mph19.2 kmh 29.83 in1010.2 mb 0.00 in0.0 mm 0.00 in0.0 mm 0.00 in0.0 mm
08:34 AM 68.2°F20.1°C 58.0°F14.4°C 70% 8.5 mph ENE13.7 kmh ENE 11.9 mph19.2 kmh 29.83 in1010.2 mb 0.00 in0.0 mm 0.00 in0.0 mm 0.00 in0.0 mm
08:33 AM 68.2°F20.1°C 58.0°F14.4°C 70% 8.5 mph ENE13.7 kmh ENE 11.9 mph19.2 kmh 29.83 in1010.2 mb 0.00 in0.0 mm 0.00 in0.0 mm 0.00 in0.0 mm
08:32 AM 68.2°F20.1°C 58.0°F14.4°C 70% 8.5 mph ENE13.7 kmh ENE 11.9 mph19.2 kmh 29.83 in1010.2 mb 0.00 in0.0 mm 0.00 in0.0 mm 0.00 in0.0 mm
08:31 AM 68.0°F20.0°C 57.8°F14.3°C 70% 8.9 mph ENE14.3 kmh ENE 11.9 mph19.2 kmh 29.83 in1010.2 mb 0.00 in0.0 mm 0.00 in0.0 mm 0.00 in0.0 mm
08:30 AM 68.0°F20.0°C 57.8°F14.3°C 70% 9.5 mph ENE15.3 kmh ENE 11.9 mph19.2 kmh 29.83 in1010.2 mb 0.00 in0.0 mm 0.00 in0.0 mm 0.00 in0.0 mm
08:29 AM 68.0°F20.0°C 57.8°F14.3°C 70% 9.8 mph ENE15.8 kmh ENE 11.9 mph19.2 kmh 29.83 in1010.2 mb 0.00 in0.0 mm 0.00 in0.0 mm 0.00 in0.0 mm
08:28 AM 68.0°F20.0°C 57.8°F14.3°C 70% 9.7 mph E15.6 kmh E 11.9 mph19.2 kmh 29.83 in1010.2 mb 0.00 in0.0 mm 0.00 in0.0 mm 0.00 in0.0 mm
08:27 AM 68.0°F20.0°C 57.8°F14.3°C 70% 9.7 mph E15.6 kmh E 11.9 mph19.2 kmh 29.83 in1010.2 mb 0.00 in0.0 mm 0.00 in0.0 mm 0.00 in0.0 mm
08:26 AM 68.0°F20.0°C 58.2°F14.6°C 71% 9.6 mph E15.4 kmh E 11.9 mph19.2 kmh 29.83 in1010.2 mb 0.00 in0.0 mm 0.00 in0.0 mm 0.00 in0.0 mm
08:25 AM 68.0°F20.0°C 58.2°F14.6°C 71% 9.5 mph E15.3 kmh E 11.9 mph19.2 kmh 29.83 in1010.2 mb 0.00 in0.0 mm 0.00 in0.0 mm 0.00 in0.0 mm
08:24 AM 67.8°F19.9°C 58.1°F14.5°C 71% 9.5 mph E15.3 kmh E 11.9 mph19.2 kmh 29.83 in1010.2 mb 0.00 in0.0 mm 0.00 in0.0 mm 0.00 in0.0 mm
08:23 AM 68.0°F20.0°C 58.2°F14.6°C 71% 9.5 mph E15.3 kmh E 11.9 mph19.2 kmh 29.83 in1010.2 mb 0.00 in0.0 mm 0.00 in0.0 mm 0.00 in0.0 mm
08:22 AM 68.0°F20.0°C 58.2°F14.6°C 71% 9.6 mph E15.4 kmh E 11.9 mph19.2 kmh 29.83 in1010.2 mb 0.00 in0.0 mm 0.00 in0.0 mm 0.00 in0.0 mm
08:21 AM 68.0°F20.0°C 58.2°F14.6°C 71% 9.5 mph E15.3 kmh E 11.9 mph19.2 kmh 29.83 in1010.2 mb 0.00 in0.0 mm 0.00 in0.0 mm 0.00 in0.0 mm
08:20 AM 68.0°F20.0°C 58.2°F14.6°C 71% 8.8 mph E14.2 kmh E 11.9 mph19.2 kmh 29.83 in1010.2 mb 0.00 in0.0 mm 0.00 in0.0 mm 0.00 in0.0 mm
08:19 AM 68.0°F20.0°C 58.2°F14.6°C 71% 8.4 mph E13.5 kmh E 10.6 mph17.1 kmh 29.83 in1010.2 mb 0.00 in0.0 mm 0.00 in0.0 mm 0.00 in0.0 mm
08:18 AM 68.0°F20.0°C 58.2°F14.6°C 71% 8.3 mph E13.4 kmh E 10.3 mph16.6 kmh 29.83 in1010.2 mb 0.00 in0.0 mm 0.00 in0.0 mm 0.00 in0.0 mm
08:17 AM 68.0°F20.0°C 58.2°F14.6°C 71% 8.2 mph E13.2 kmh E 11.3 mph18.2 kmh 29.83 in1010.2 mb 0.00 in0.0 mm 0.00 in0.0 mm 0.00 in0.0 mm
08:16 AM 68.0°F20.0°C 58.6°F14.8°C 72% 7.9 mph E12.7 kmh E 11.3 mph18.2 kmh 29.83 in1010.2 mb 0.00 in0.0 mm 0.00 in0.0 mm 0.00 in0.0 mm
08:15 AM 68.0°F20.0°C 58.6°F14.8°C 72% 7.9 mph E12.7 kmh E 11.3 mph18.2 kmh 29.83 in1010.2 mb 0.00 in0.0 mm 0.00 in0.0 mm 0.00 in0.0 mm
08:14 AM 68.0°F20.0°C 58.6°F14.8°C 72% 7.8 mph E12.6 kmh E 11.3 mph18.2 kmh 29.83 in1010.2 mb 0.00 in0.0 mm 0.00 in0.0 mm 0.00 in0.0 mm
08:13 AM 68.0°F20.0°C 58.6°F14.8°C 72% 7.8 mph E12.6 kmh E 11.3 mph18.2 kmh 29.83 in1010.2 mb 0.00 in0.0 mm 0.00 in0.0 mm 0.00 in0.0 mm
08:12 AM 68.0°F20.0°C 58.6°F14.8°C 72% 7.4 mph ENE11.9 kmh ENE 11.3 mph18.2 kmh 29.83 in1010.2 mb 0.00 in0.0 mm 0.00 in0.0 mm 0.00 in0.0 mm
08:11 AM 68.0°F20.0°C 58.6°F14.8°C 72% 7.4 mph ENE11.9 kmh ENE 11.3 mph18.2 kmh 29.83 in1010.2 mb 0.00 in0.0 mm 0.00 in0.0 mm 0.00 in0.0 mm
08:10 AM 68.0°F20.0°C 58.6°F14.8°C 72% 7.9 mph ENE12.7 kmh ENE 11.3 mph18.2 kmh 29.83 in1010.2 mb 0.00 in0.0 mm 0.00 in0.0 mm 0.00 in0.0 mm
08:09 AM 68.0°F20.0°C 58.6°F14.8°C 72% 7.8 mph ENE12.6 kmh ENE 11.3 mph18.2 kmh 29.83 in1010.2 mb 0.00 in0.0 mm 0.00 in0.0 mm 0.00 in0.0 mm
08:08 AM 67.8°F19.9°C 58.5°F14.7°C 72% 7.9 mph ENE12.7 kmh ENE 11.3 mph18.2 kmh 29.83 in1010.2 mb 0.00 in0.0 mm 0.00 in0.0 mm 0.00 in0.0 mm
08:07 AM 67.8°F19.9°C 58.5°F14.7°C 72% 7.8 mph NE12.6 kmh NE 10.6 mph17.1 kmh 29.83 in1010.2 mb 0.00 in0.0 mm 0.00 in0.0 mm 0.00 in0.0 mm
08:06 AM 67.8°F19.9°C 58.5°F14.7°C 72% 7.8 mph NE12.6 kmh NE 10.6 mph17.1 kmh 29.83 in1010.2 mb 0.00 in0.0 mm 0.00 in0.0 mm 0.00 in0.0 mm
08:05 AM 67.8°F19.9°C 58.5°F14.7°C 72% 7.8 mph ENE12.6 kmh ENE 10.6 mph17.1 kmh 29.83 in1010.2 mb 0.00 in0.0 mm 0.00 in0.0 mm 0.00 in0.0 mm
08:04 AM 67.8°F19.9°C 58.5°F14.7°C 72% 7.7 mph NE12.4 kmh NE 10.6 mph17.1 kmh 29.83 in1010.2 mb 0.00 in0.0 mm 0.00 in0.0 mm 0.00 in0.0 mm
08:03 AM 67.8°F19.9°C 58.8°F14.9°C 73% 7.3 mph NE11.7 kmh NE 10.6 mph17.1 kmh 29.83 in1010.2 mb 0.00 in0.0 mm 0.00 in0.0 mm 0.00 in0.0 mm
08:02 AM 67.8°F19.9°C 58.8°F14.9°C 73% 7.2 mph NE11.6 kmh NE 10.6 mph17.1 kmh 29.83 in1010.2 mb 0.00 in0.0 mm 0.00 in0.0 mm 0.00 in0.0 mm
08:01 AM 67.6°F19.8°C 58.7°F14.8°C 73% 7.1 mph ENE11.4 kmh ENE 10.6 mph17.1 kmh 29.83 in1010.2 mb 0.00 in0.0 mm 0.00 in0.0 mm 0.00 in0.0 mm
08:00 AM 67.6°F19.8°C 58.7°F14.8°C 73% 7.3 mph ENE11.7 kmh ENE 10.6 mph17.1 kmh 29.83 in1010.2 mb 0.00 in0.0 mm 0.00 in0.0 mm 0.00 in0.0 mm
07:59 AM 67.6°F19.8°C 58.7°F14.8°C 73% 6.7 mph ENE10.8 kmh ENE 10.6 mph17.1 kmh 29.80 in1009.1 mb 0.00 in0.0 mm 0.00 in0.0 mm 0.00 in0.0 mm
07:58 AM 67.6°F19.8°C 58.7°F14.8°C 73% 6.8 mph ENE10.9 kmh ENE 10.6 mph17.1 kmh 29.80 in1009.1 mb 0.00 in0.0 mm 0.00 in0.0 mm 0.00 in0.0 mm
07:57 AM 67.6°F19.8°C 58.7°F14.8°C 73% 6.6 mph ENE10.6 kmh ENE 10.3 mph16.6 kmh 29.80 in1009.1 mb 0.00 in0.0 mm 0.00 in0.0 mm 0.00 in0.0 mm
07:56 AM 67.6°F19.8°C 58.7°F14.8°C 73% 7.1 mph ENE11.4 kmh ENE 11.3 mph18.2 kmh 29.80 in1009.1 mb 0.00 in0.0 mm 0.00 in0.0 mm 0.00 in0.0 mm
07:55 AM 67.6°F19.8°C 58.7°F14.8°C 73% 7.1 mph ENE11.4 kmh ENE 11.3 mph18.2 kmh 29.80 in1009.1 mb 0.00 in0.0 mm 0.00 in0.0 mm 0.00 in0.0 mm
07:54 AM 67.6°F19.8°C 58.7°F14.8°C 73% 7.5 mph ENE12.1 kmh ENE 11.3 mph18.2 kmh 29.80 in1009.1 mb 0.00 in0.0 mm 0.00 in0.0 mm 0.00 in0.0 mm
07:53 AM 67.5°F19.7°C 58.5°F14.7°C 73% 7.7 mph ENE12.4 kmh ENE 11.3 mph18.2 kmh 29.80 in1009.1 mb 0.00 in0.0 mm 0.00 in0.0 mm 0.00 in0.0 mm
07:52 AM 67.5°F19.7°C 58.5°F14.7°C 73% 7.7 mph ENE12.4 kmh ENE 11.3 mph18.2 kmh 29.80 in1009.1 mb 0.00 in0.0 mm 0.00 in0.0 mm 0.00 in0.0 mm
07:51 AM 67.5°F19.7°C 58.5°F14.7°C 73% 7.8 mph ENE12.6 kmh ENE 11.3 mph18.2 kmh 29.80 in1009.1 mb 0.00 in0.0 mm 0.00 in0.0 mm 0.00 in0.0 mm
07:50 AM 67.5°F19.7°C 58.5°F14.7°C 73% 7.6 mph ENE12.2 kmh ENE 11.3 mph18.2 kmh 29.80 in1009.1 mb 0.00 in0.0 mm 0.00 in0.0 mm 0.00 in0.0 mm
07:49 AM 67.5°F19.7°C 58.5°F14.7°C 73% 8.8 mph NE14.2 kmh NE 13.8 mph22.2 kmh 29.80 in1009.1 mb 0.00 in0.0 mm 0.00 in0.0 mm 0.00 in0.0 mm
07:48 AM 67.5°F19.7°C 58.5°F14.7°C 73% 9.0 mph NE14.5 kmh NE 13.8 mph22.2 kmh 29.80 in1009.1 mb 0.00 in0.0 mm 0.00 in0.0 mm 0.00 in0.0 mm
07:47 AM 67.3°F19.6°C 58.3°F14.6°C 73% 8.6 mph NE13.8 kmh NE 13.8 mph22.2 kmh 29.80 in1009.1 mb 0.00 in0.0 mm 0.00 in0.0 mm 0.00 in0.0 mm
07:46 AM 67.3°F19.6°C 57.9°F14.4°C 72% 8.2 mph NE13.2 kmh NE 13.8 mph22.2 kmh 29.80 in1009.1 mb 0.00 in0.0 mm 0.00 in0.0 mm 0.00 in0.0 mm
07:45 AM 67.3°F19.6°C 57.9°F14.4°C 72% 8.0 mph NE12.9 kmh NE 13.8 mph22.2 kmh 29.80 in1009.1 mb 0.00 in0.0 mm 0.00 in0.0 mm 0.00 in0.0 mm
07:44 AM 67.3°F19.6°C 57.9°F14.4°C 72% 7.5 mph NE12.1 kmh NE 13.8 mph22.2 kmh 29.83 in1010.2 mb 0.00 in0.0 mm 0.00 in0.0 mm 0.00 in0.0 mm
07:43 AM 67.3°F19.6°C 57.9°F14.4°C 72% 7.3 mph NE11.7 kmh NE 13.8 mph22.2 kmh 29.83 in1010.2 mb 0.00 in0.0 mm 0.00 in0.0 mm 0.00 in0.0 mm
07:42 AM 67.1°F19.5°C 57.8°F14.3°C 72% 6.9 mph NE11.1 kmh NE 13.8 mph22.2 kmh 29.83 in1010.2 mb 0.00 in0.0 mm 0.00 in0.0 mm 0.00 in0.0 mm
07:41 AM 67.1°F19.5°C 57.8°F14.3°C 72% 6.7 mph NE10.8 kmh NE 13.8 mph22.2 kmh 29.83 in1010.2 mb 0.00 in0.0 mm 0.00 in0.0 mm 0.00 in0.0 mm
07:40 AM 67.1°F19.5°C 57.8°F14.3°C 72% 6.6 mph NE10.6 kmh NE 13.8 mph22.2 kmh 29.83 in1010.2 mb 0.00 in0.0 mm 0.00 in0.0 mm 0.00 in0.0 mm
07:39 AM 67.1°F19.5°C 57.8°F14.3°C 72% 6.6 mph NE10.6 kmh NE 13.8 mph22.2 kmh 29.83 in1010.2 mb 0.00 in0.0 mm 0.00 in0.0 mm 0.00 in0.0 mm
07:38 AM 66.9°F19.4°C 57.6°F14.2°C 72% 5.5 mph ENE8.9 kmh ENE 8.1 mph13.0 kmh 29.83 in1010.2 mb 0.00 in0.0 mm 0.00 in0.0 mm 0.00 in0.0 mm
07:37 AM 66.9°F19.4°C 57.6°F14.2°C 72% 5.3 mph ENE8.5 kmh ENE 8.1 mph13.0 kmh 29.83 in1010.2 mb 0.00 in0.0 mm 0.00 in0.0 mm 0.00 in0.0 mm
07:36 AM 66.9°F19.4°C 57.6°F14.2°C 72% 5.2 mph ENE8.4 kmh ENE 8.1 mph13.0 kmh 29.83 in1010.2 mb 0.00 in0.0 mm 0.00 in0.0 mm 0.00 in0.0 mm
07:35 AM 66.7°F19.3°C 57.4°F14.1°C 72% 4.7 mph ENE7.6 kmh ENE 8.1 mph13.0 kmh 29.83 in1010.2 mb 0.00 in0.0 mm 0.00 in0.0 mm 0.00 in0.0 mm
07:34 AM 66.7°F19.3°C 57.4°F14.1°C 72% 4.6 mph ENE7.4 kmh ENE 8.1 mph13.0 kmh 29.83 in1010.2 mb 0.00 in0.0 mm 0.00 in0.0 mm 0.00 in0.0 mm
07:33 AM 66.7°F19.3°C 57.4°F14.1°C 72% 4.7 mph ENE7.6 kmh ENE 8.1 mph13.0 kmh 29.83 in1010.2 mb 0.00 in0.0 mm 0.00 in0.0 mm 0.00 in0.0 mm
07:32 AM 66.7°F19.3°C 57.4°F14.1°C 72% 4.5 mph ENE7.2 kmh ENE 8.1 mph13.0 kmh 29.83 in1010.2 mb 0.00 in0.0 mm 0.00 in0.0 mm 0.00 in0.0 mm
07:31 AM 66.7°F19.3°C 57.4°F14.1°C 72% 4.7 mph NE7.6 kmh NE 8.1 mph13.0 kmh 29.83 in1010.2 mb 0.00 in0.0 mm 0.00 in0.0 mm 0.00 in0.0 mm
07:30 AM 66.7°F19.3°C 57.4°F14.1°C 72% 4.3 mph NE6.9 kmh NE 8.1 mph13.0 kmh 29.83 in1010.2 mb 0.00 in0.0 mm 0.00 in0.0 mm 0.00 in0.0 mm
07:29 AM 66.7°F19.3°C 57.4°F14.1°C 72% 4.0 mph NE6.4 kmh NE 7.5 mph12.1 kmh 29.80 in1009.1 mb 0.00 in0.0 mm 0.00 in0.0 mm 0.00 in0.0 mm
07:28 AM 66.7°F19.3°C 57.4°F14.1°C 72% 4.0 mph NE6.4 kmh NE 7.5 mph12.1 kmh 29.80 in1009.1 mb 0.00 in0.0 mm 0.00 in0.0 mm 0.00 in0.0 mm
07:27 AM 66.7°F19.3°C 57.4°F14.1°C 72% 4.0 mph NNE6.4 kmh NNE 7.5 mph12.1 kmh 29.80 in1009.1 mb 0.00 in0.0 mm 0.00 in0.0 mm 0.00 in0.0 mm
07:26 AM 66.6°F19.2°C 57.3°F14.1°C 72% 3.8 mph NNE6.1 kmh NNE 7.5 mph12.1 kmh 29.80 in1009.1 mb 0.00 in0.0 mm 0.00 in0.0 mm 0.00 in0.0 mm
07:25 AM 66.6°F19.2°C 57.3°F14.1°C 72% 3.8 mph NNE6.1 kmh NNE 7.5 mph12.1 kmh 29.80 in1009.1 mb 0.00 in0.0 mm 0.00 in0.0 mm 0.00 in0.0 mm
07:24 AM 66.6°F19.2°C 57.3°F14.1°C 72% 3.7 mph NNE6.0 kmh NNE 7.5 mph12.1 kmh 29.80 in1009.1 mb 0.00 in0.0 mm 0.00 in0.0 mm 0.00 in0.0 mm
07:23 AM 66.6°F19.2°C 57.3°F14.1°C 72% 3.4 mph N5.5 kmh N 4.7 mph7.6 kmh 29.80 in1009.1 mb 0.00 in0.0 mm 0.00 in0.0 mm 0.00 in0.0 mm
07:22 AM 66.6°F19.2°C 57.3°F14.1°C 72% 3.7 mph NNE6.0 kmh NNE 6.6 mph10.6 kmh 29.80 in1009.1 mb 0.00 in0.0 mm 0.00 in0.0 mm 0.00 in0.0 mm
07:21 AM 66.6°F19.2°C 57.3°F14.1°C 72% 3.6 mph NNE5.8 kmh NNE 6.6 mph10.6 kmh 29.80 in1009.1 mb 0.00 in0.0 mm 0.00 in0.0 mm 0.00 in0.0 mm
07:20 AM 66.6°F19.2°C 57.3°F14.1°C 72% 3.5 mph NNE5.6 kmh NNE 6.6 mph10.6 kmh 29.80 in1009.1 mb 0.00 in0.0 mm 0.00 in0.0 mm 0.00 in0.0 mm
07:19 AM 66.6°F19.2°C 57.3°F14.1°C 72% 3.9 mph NNE6.3 kmh NNE 8.1 mph13.0 kmh 29.80 in1009.1 mb 0.00 in0.0 mm 0.00 in0.0 mm 0.00 in0.0 mm
07:18 AM 66.6°F19.2°C 57.3°F14.1°C 72% 3.9 mph NNE6.3 kmh NNE 8.1 mph13.0 kmh 29.80 in1009.1 mb 0.00 in0.0 mm 0.00 in0.0 mm 0.00 in0.0 mm
07:17 AM 66.6°F19.2°C 57.3°F14.1°C 72% 3.9 mph NE6.3 kmh NE 8.1 mph13.0 kmh 29.80 in1009.1 mb 0.00 in0.0 mm 0.00 in0.0 mm 0.00 in0.0 mm
07:16 AM 66.6°F19.2°C 57.3°F14.1°C 72% 4.2 mph NE6.8 kmh NE 8.1 mph13.0 kmh 29.80 in1009.1 mb 0.00 in0.0 mm 0.00 in0.0 mm 0.00 in0.0 mm
07:15 AM 66.6°F19.2°C 57.3°F14.1°C 72% 4.1 mph NE6.6 kmh NE 8.1 mph13.0 kmh 29.80 in1009.1 mb 0.00 in0.0 mm 0.00 in0.0 mm 0.00 in0.0 mm
07:14 AM 66.6°F19.2°C 57.3°F14.1°C 72% 4.3 mph NE6.9 kmh NE 8.1 mph13.0 kmh 29.80 in1009.1 mb 0.00 in0.0 mm 0.00 in0.0 mm 0.00 in0.0 mm
07:13 AM 66.6°F19.2°C 57.3°F14.1°C 72% 4.3 mph NE6.9 kmh NE 8.1 mph13.0 kmh 29.80 in1009.1 mb 0.00 in0.0 mm 0.00 in0.0 mm 0.00 in0.0 mm
07:12 AM 66.4°F19.1°C 57.1°F13.9°C 72% 4.1 mph NE6.6 kmh NE 8.1 mph13.0 kmh 29.80 in1009.1 mb 0.00 in0.0 mm 0.00 in0.0 mm 0.00 in0.0 mm
07:11 AM 66.4°F19.1°C 57.1°F13.9°C 72% 4.0 mph NE6.4 kmh NE 8.1 mph13.0 kmh 29.80 in1009.1 mb 0.00 in0.0 mm 0.00 in0.0 mm 0.00 in0.0 mm
07:10 AM 66.4°F19.1°C 57.1°F13.9°C 72% 4.4 mph NE7.1 kmh NE 8.1 mph13.0 kmh 29.80 in1009.1 mb 0.00 in0.0 mm 0.00 in0.0 mm 0.00 in0.0 mm
07:09 AM 66.4°F19.1°C 57.1°F13.9°C 72% 4.1 mph NE6.6 kmh NE 6.9 mph11.1 kmh 29.80 in1009.1 mb 0.00 in0.0 mm 0.00 in0.0 mm 0.00 in0.0 mm
07:08 AM 66.4°F19.1°C 57.1°F13.9°C 72% 3.6 mph NE5.8 kmh NE 6.9 mph11.1 kmh 29.80 in1009.1 mb 0.00 in0.0 mm 0.00 in0.0 mm 0.00 in0.0 mm
07:07 AM 66.2°F19.0°C 56.9°F13.8°C 72% 3.3 mph NE5.3 kmh NE 6.9 mph11.1 kmh 29.80 in1009.1 mb 0.00 in0.0 mm 0.00 in0.0 mm 0.00 in0.0 mm
07:06 AM 66.2°F19.0°C 56.9°F13.8°C 72% 2.8 mph NE4.5 kmh NE 6.9 mph11.1 kmh 29.80 in1009.1 mb 0.00 in0.0 mm 0.00 in0.0 mm 0.00 in0.0 mm
07:05 AM 66.2°F19.0°C 56.9°F13.8°C 72% 2.4 mph NNE3.9 kmh NNE 6.9 mph11.1 kmh 29.80 in1009.1 mb 0.00 in0.0 mm 0.00 in0.0 mm 0.00 in0.0 mm
07:04 AM 66.2°F19.0°C 56.9°F13.8°C 72% 2.3 mph NNE3.7 kmh NNE 6.9 mph11.1 kmh 29.80 in1009.1 mb 0.00 in0.0 mm 0.00 in0.0 mm 0.00 in0.0 mm
07:03 AM 66.0°F18.9°C 56.7°F13.7°C 72% 1.8 mph NNE2.9 kmh NNE 5.3 mph8.5 kmh 29.80 in1009.1 mb 0.00 in0.0 mm 0.00 in0.0 mm 0.00 in0.0 mm
07:02 AM 66.0°F18.9°C 56.7°F13.7°C 72% 1.6 mph NNE2.6 kmh NNE 5.3 mph8.5 kmh 29.80 in1009.1 mb 0.00 in0.0 mm 0.00 in0.0 mm 0.00 in0.0 mm
07:01 AM 66.0°F18.9°C 56.7°F13.7°C 72% 1.0 mph NNE1.6 kmh NNE 5.3 mph8.5 kmh 29.80 in1009.1 mb 0.00 in0.0 mm 0.00 in0.0 mm 0.00 in0.0 mm
07:00 AM 66.0°F18.9°C 56.7°F13.7°C 72% 0.5 mph NE0.8 kmh NE 4.1 mph6.6 kmh 29.80 in1009.1 mb 0.00 in0.0 mm 0.00 in0.0 mm 0.00 in0.0 mm
06:59 AM 66.0°F18.9°C 56.7°F13.7°C 72% 0.3 mph NE0.5 kmh NE 1.6 mph2.6 kmh 29.80 in1009.1 mb 0.00 in0.0 mm 0.00 in0.0 mm 0.00 in0.0 mm
06:58 AM 65.8°F18.8°C 56.6°F13.7°C 72% 0.3 mph NE0.5 kmh NE 1.6 mph2.6 kmh 29.80 in1009.1 mb 0.00 in0.0 mm 0.00 in0.0 mm 0.00 in0.0 mm
06:57 AM 65.8°F18.8°C 56.6°F13.7°C 72% 0.3 mph NE0.5 kmh NE 1.6 mph2.6 kmh 29.80 in1009.1 mb 0.00 in0.0 mm 0.00 in0.0 mm 0.00 in0.0 mm
06:56 AM 65.8°F18.8°C 56.6°F13.7°C 72% 0.4 mph NE0.6 kmh NE 1.6 mph2.6 kmh 29.80 in1009.1 mb 0.00 in0.0 mm 0.00 in0.0 mm 0.00 in0.0 mm
06:55 AM 65.8°F18.8°C 56.6°F13.7°C 72% 0.5 mph NE0.8 kmh NE 1.6 mph2.6 kmh 29.80 in1009.1 mb 0.00 in0.0 mm 0.00 in0.0 mm 0.00 in0.0 mm
06:54 AM 65.7°F18.7°C 56.4°F13.6°C 72% 0.5 mph NNE0.8 kmh NNE 1.6 mph2.6 kmh 29.80 in1009.1 mb 0.00 in0.0 mm 0.00 in0.0 mm 0.00 in0.0 mm
06:53 AM 65.7°F18.7°C 56.4°F13.6°C 72% 0.6 mph NNE1.0 kmh NNE 1.6 mph2.6 kmh 29.80 in1009.1 mb 0.00 in0.0 mm 0.00 in0.0 mm 0.00 in0.0 mm
06:52 AM 65.7°F18.7°C 56.4°F13.6°C 72% 0.7 mph NNE1.1 kmh NNE 1.6 mph2.6 kmh 29.80 in1009.1 mb 0.00 in0.0 mm 0.00 in0.0 mm 0.00 in0.0 mm
06:51 AM 65.7°F18.7°C 56.4°F13.6°C 72% 0.7 mph NNE1.1 kmh NNE 1.6 mph2.6 kmh 29.80 in1009.1 mb 0.00 in0.0 mm 0.00 in0.0 mm 0.00 in0.0 mm
06:50 AM 65.7°F18.7°C 56.4°F13.6°C 72% 0.7 mph NNE1.1 kmh NNE 1.6 mph2.6 kmh 29.80 in1009.1 mb 0.00 in0.0 mm 0.00 in0.0 mm 0.00 in0.0 mm
06:49 AM 65.5°F18.6°C 56.2°F13.4°C 72% 0.7 mph NNE1.1 kmh NNE 1.6 mph2.6 kmh 29.80 in1009.1 mb 0.00 in0.0 mm 0.00 in0.0 mm 0.00 in0.0 mm
06:48 AM 65.5°F18.6°C 56.2°F13.4°C 72% 0.7 mph NNE1.1 kmh NNE 1.6 mph2.6 kmh 29.80 in1009.1 mb 0.00 in0.0 mm 0.00 in0.0 mm 0.00 in0.0 mm
06:47 AM 65.5°F18.6°C 56.2°F13.4°C 72% 0.8 mph NNE1.3 kmh NNE 1.6 mph2.6 kmh 29.80 in1009.1 mb 0.00 in0.0 mm 0.00 in0.0 mm 0.00 in0.0 mm
06:46 AM 65.5°F18.6°C 56.2°F13.4°C 72% 0.8 mph NNE1.3 kmh NNE 1.6 mph2.6 kmh 29.80 in1009.1 mb 0.00 in0.0 mm 0.00 in0.0 mm 0.00 in0.0 mm
06:45 AM 65.5°F18.6°C 56.2°F13.4°C 72% 0.6 mph N1.0 kmh N 1.6 mph2.6 kmh 29.80 in1009.1 mb 0.00 in0.0 mm 0.00 in0.0 mm 0.00 in0.0 mm
06:44 AM 65.3°F18.5°C 56.0°F13.3°C 72% 0.5 mph N0.8 kmh N 1.6 mph2.6 kmh 29.80 in1009.1 mb 0.00 in0.0 mm 0.00 in0.0 mm 0.00 in0.0 mm
06:43 AM 65.3°F18.5°C 56.0°F13.3°C 72% 0.4 mph NNE0.6 kmh NNE 1.6 mph2.6 kmh 29.80 in1009.1 mb 0.00 in0.0 mm 0.00 in0.0 mm 0.00 in0.0 mm
06:42 AM 65.3°F18.5°C 55.7°F13.2°C 71% 0.3 mph NNE0.5 kmh NNE 1.6 mph2.6 kmh 29.80 in1009.1 mb 0.00 in0.0 mm 0.00 in0.0 mm 0.00 in0.0 mm
06:41 AM 65.3°F18.5°C 55.7°F13.2°C 71% 0.2 mph NNE0.3 kmh NNE 1.6 mph2.6 kmh 29.80 in1009.1 mb 0.00 in0.0 mm 0.00 in0.0 mm 0.00 in0.0 mm
06:40 AM 65.1°F18.4°C 55.5°F13.1°C 71% 0.1 mph NNW0.2 kmh NNW 1.6 mph2.6 kmh 29.80 in1009.1 mb 0.00 in0.0 mm 0.00 in0.0 mm 0.00 in0.0 mm
06:39 AM 65.1°F18.4°C 55.5°F13.1°C 71% 0.1 mph NNW0.2 kmh NNW 1.6 mph2.6 kmh 29.80 in1009.1 mb 0.00 in0.0 mm 0.00 in0.0 mm 0.00 in0.0 mm
06:38 AM 65.1°F18.4°C 55.5°F13.1°C 71% 0.1 mph NNW0.2 kmh NNW 1.6 mph2.6 kmh 29.80 in1009.1 mb 0.00 in0.0 mm 0.00 in0.0 mm 0.00 in0.0 mm
06:37 AM 64.9°F18.3°C 55.3°F12.9°C 71% 0.1 mph N0.2 kmh N 1.3 mph2.1 kmh 29.80 in1009.1 mb 0.00 in0.0 mm 0.00 in0.0 mm 0.00 in0.0 mm
06:36 AM 64.9°F18.3°C 55.3°F12.9°C 71% 0.1 mph N0.2 kmh N 1.3 mph2.1 kmh 29.80 in1009.1 mb 0.00 in0.0 mm 0.00 in0.0 mm 0.00 in0.0 mm
06:35 AM 64.9°F18.3°C 55.3°F12.9°C 71% 0.2 mph NNE0.3 kmh NNE 1.3 mph2.1 kmh 29.80 in1009.1 mb 0.00 in0.0 mm 0.00 in0.0 mm 0.00 in0.0 mm
06:34 AM 64.9°F18.3°C 55.3°F12.9°C 71% 0.3 mph NE0.5 kmh NE 1.3 mph2.1 kmh 29.80 in1009.1 mb 0.00 in0.0 mm 0.00 in0.0 mm 0.00 in0.0 mm
06:33 AM 64.8°F18.2°C 55.1°F12.8°C 71% 0.6 mph NE1.0 kmh NE 1.9 mph3.1 kmh 29.80 in1009.1 mb 0.00 in0.0 mm 0.00 in0.0 mm 0.00 in0.0 mm
06:32 AM 64.8°F18.2°C 55.1°F12.8°C 71% 0.6 mph NE1.0 kmh NE 1.9 mph3.1 kmh 29.80 in1009.1 mb 0.00 in0.0 mm 0.00 in0.0 mm 0.00 in0.0 mm
06:31 AM 64.6°F18.1°C 55.0°F12.8°C 71% 0.6 mph NE1.0 kmh NE 1.9 mph3.1 kmh 29.80 in1009.1 mb 0.00 in0.0 mm 0.00 in0.0 mm 0.00 in0.0 mm
06:30 AM 64.4°F18.0°C 54.8°F12.7°C 71% 0.7 mph NE1.1 kmh NE 1.9 mph3.1 kmh 29.80 in1009.1 mb 0.00 in0.0 mm 0.00 in0.0 mm 0.00 in0.0 mm
06:29 AM 64.4°F18.0°C 54.8°F12.7°C 71% 0.6 mph NE1.0 kmh NE 1.9 mph3.1 kmh 29.80 in1009.1 mb 0.00 in0.0 mm 0.00 in0.0 mm 0.00 in0.0 mm
06:28 AM 64.4°F18.0°C 54.8°F12.7°C 71% 0.6 mph NE1.0 kmh NE 1.9 mph3.1 kmh 29.80 in1009.1 mb 0.00 in0.0 mm 0.00 in0.0 mm 0.00 in0.0 mm
06:27 AM 64.4°F18.0°C 54.8°F12.7°C 71% 0.6 mph NE1.0 kmh NE 1.9 mph3.1 kmh 29.80 in1009.1 mb 0.00 in0.0 mm 0.00 in0.0 mm 0.00 in0.0 mm
06:26 AM 64.2°F17.9°C 54.6°F12.6°C 71% 0.6 mph NE1.0 kmh NE 1.9 mph3.1 kmh 29.80 in1009.1 mb 0.00 in0.0 mm 0.00 in0.0 mm 0.00 in0.0 mm
06:25 AM 64.2°F17.9°C 54.6°F12.6°C 71% 0.5 mph NE0.8 kmh NE 1.9 mph3.1 kmh 29.80 in1009.1 mb 0.00 in0.0 mm 0.00 in0.0 mm 0.00 in0.0 mm
06:24 AM 64.0°F17.8°C 54.4°F12.4°C 71% 0.4 mph NE0.6 kmh NE 1.9 mph3.1 kmh 29.80 in1009.1 mb 0.00 in0.0 mm 0.00 in0.0 mm 0.00 in0.0 mm
06:23 AM 63.9°F17.7°C 54.3°F12.4°C 71% 0.3 mph NE0.5 kmh NE 1.9 mph3.1 kmh 29.80 in1009.1 mb 0.00 in0.0 mm 0.00 in0.0 mm 0.00 in0.0 mm
06:22 AM 63.9°F17.7°C 54.3°F12.4°C 71% 0.2 mph NNE0.3 kmh NNE 1.9 mph3.1 kmh 29.80 in1009.1 mb 0.00 in0.0 mm 0.00 in0.0 mm 0.00 in0.0 mm
06:21 AM 63.7°F17.6°C 54.1°F12.3°C 71% 0.1 mph N0.2 kmh N 1.9 mph3.1 kmh 29.80 in1009.1 mb 0.00 in0.0 mm 0.00 in0.0 mm 0.00 in0.0 mm
06:20 AM 63.7°F17.6°C 54.1°F12.3°C 71% 0.1 mph N0.2 kmh N 1.9 mph3.1 kmh 29.80 in1009.1 mb 0.00 in0.0 mm 0.00 in0.0 mm 0.00 in0.0 mm
06:19 AM 63.5°F17.5°C 53.5°F11.9°C 70% 0.1 mph N0.2 kmh N 1.9 mph3.1 kmh 29.80 in1009.1 mb 0.00 in0.0 mm 0.00 in0.0 mm 0.00 in0.0 mm
06:18 AM 63.5°F17.5°C 53.5°F11.9°C 70% 0.1 mph N0.2 kmh N 1.9 mph3.1 kmh 29.80 in1009.1 mb 0.00 in0.0 mm 0.00 in0.0 mm 0.00 in0.0 mm
06:17 AM 63.3°F17.4°C 53.4°F11.9°C 70% 0.1 mph N0.2 kmh N 1.9 mph3.1 kmh 29.80 in1009.1 mb 0.00 in0.0 mm 0.00 in0.0 mm 0.00 in0.0 mm
06:16 AM 63.3°F17.4°C 53.4°F11.9°C 70% 0.1 mph N0.2 kmh N 1.9 mph3.1 kmh 29.80 in1009.1 mb 0.00 in0.0 mm 0.00 in0.0 mm 0.00 in0.0 mm
06:15 AM 63.1°F17.3°C 53.2°F11.8°C 70% 0.1 mph N0.2 kmh N 1.9 mph3.1 kmh 29.80 in1009.1 mb 0.00 in0.0 mm 0.00 in0.0 mm 0.00 in0.0 mm
06:14 AM 62.8°F17.1°C 52.8°F11.6°C 70% 0.1 mph N0.2 kmh N 1.9 mph3.1 kmh 29.80 in1009.1 mb 0.00 in0.0 mm 0.00 in0.0 mm 0.00 in0.0 mm
06:13 AM 62.8°F17.1°C 52.8°F11.6°C 70% 0.1 mph N0.2 kmh N 1.9 mph3.1 kmh 29.80 in1009.1 mb 0.00 in0.0 mm 0.00 in0.0 mm 0.00 in0.0 mm
06:12 AM 62.8°F17.1°C 52.8°F11.6°C 70% Calm Calm -- 29.80 in1009.1 mb 0.00 in0.0 mm 0.00 in0.0 mm 0.00 in0.0 mm
06:11 AM 62.8°F17.1°C 52.8°F11.6°C 70% Calm Calm -- 29.80 in1009.1 mb 0.00 in0.0 mm 0.00 in0.0 mm 0.00 in0.0 mm
06:10 AM 62.6°F17.0°C 52.7°F11.5°C 70% Calm Calm -- 29.80 in1009.1 mb 0.00 in0.0 mm 0.00 in0.0 mm 0.00 in0.0 mm
06:09 AM 62.6°F17.0°C 52.7°F11.5°C 70% Calm Calm -- 29.80 in1009.1 mb 0.00 in0.0 mm 0.00 in0.0 mm 0.00 in0.0 mm
06:08 AM 62.6°F17.0°C 52.7°F11.5°C 70% Calm Calm -- 29.80 in1009.1 mb 0.00 in0.0 mm 0.00 in0.0 mm 0.00 in0.0 mm
06:07 AM 62.4°F16.9°C 52.9°F11.6°C 71% Calm Calm -- 29.80 in1009.1 mb 0.00 in0.0 mm 0.00 in0.0 mm 0.00 in0.0 mm
06:06 AM 62.4°F16.9°C 52.9°F11.6°C 71% Calm Calm -- 29.80 in1009.1 mb 0.00 in0.0 mm 0.00 in0.0 mm 0.00 in0.0 mm
06:05 AM 62.4°F16.9°C 52.9°F11.6°C 71% Calm Calm -- 29.80 in1009.1 mb 0.00 in0.0 mm 0.00 in0.0 mm 0.00 in0.0 mm
06:04 AM 62.4°F16.9°C 52.9°F11.6°C 71% Calm Calm -- 29.80 in1009.1 mb 0.00 in0.0 mm 0.00 in0.0 mm 0.00 in0.0 mm
06:03 AM 62.2°F16.8°C 52.3°F11.3°C 70% Calm Calm -- 29.80 in1009.1 mb 0.00 in0.0 mm 0.00 in0.0 mm 0.00 in0.0 mm
06:02 AM 62.2°F16.8°C 52.3°F11.3°C 70% Calm Calm -- 29.80 in1009.1 mb 0.00 in0.0 mm 0.00 in0.0 mm 0.00 in0.0 mm
06:01 AM 62.2°F16.8°C 52.3°F11.3°C 70% Calm Calm -- 29.80 in1009.1 mb 0.00 in0.0 mm 0.00 in0.0 mm 0.00 in0.0 mm
06:00 AM 62.2°F16.8°C 52.3°F11.3°C 70% Calm Calm -- 29.80 in1009.1 mb 0.00 in0.0 mm 0.00 in0.0 mm 0.00 in0.0 mm
05:59 AM 62.2°F16.8°C 52.3°F11.3°C 70% Calm Calm -- 29.80 in1009.1 mb 0.00 in0.0 mm 0.00 in0.0 mm 0.00 in0.0 mm
05:58 AM 62.1°F16.7°C 52.2°F11.2°C 70% Calm Calm -- 29.80 in1009.1 mb 0.00 in0.0 mm 0.00 in0.0 mm 0.00 in0.0 mm
05:57 AM 62.1°F16.7°C 52.2°F11.2°C 70% Calm Calm -- 29.80 in1009.1 mb 0.00 in0.0 mm 0.00 in0.0 mm 0.00 in0.0 mm
05:56 AM 62.1°F16.7°C 52.2°F11.2°C 70% Calm Calm -- 29.80 in1009.1 mb 0.00 in0.0 mm 0.00 in0.0 mm 0.00 in0.0 mm
05:55 AM 62.1°F16.7°C 52.2°F11.2°C 70% Calm Calm -- 29.80 in1009.1 mb 0.00 in0.0 mm 0.00 in0.0 mm 0.00 in0.0 mm
05:54 AM 62.1°F16.7°C 52.2°F11.2°C 70% Calm Calm -- 29.80 in1009.1 mb 0.00 in0.0 mm 0.00 in0.0 mm 0.00 in0.0 mm
05:53 AM 62.1°F16.7°C 52.2°F11.2°C 70% Calm Calm -- 29.80 in1009.1 mb 0.00 in0.0 mm 0.00 in0.0 mm 0.00 in0.0 mm
05:52 AM 61.9°F16.6°C 52.0°F11.1°C 70% Calm Calm -- 29.80 in1009.1 mb 0.00 in0.0 mm 0.00 in0.0 mm 0.00 in0.0 mm
05:51 AM 61.9°F16.6°C 52.0°F11.1°C 70% 0.1 mph ENE0.2 kmh ENE 1.9 mph3.1 kmh 29.80 in1009.1 mb 0.00 in0.0 mm 0.00 in0.0 mm 0.00 in0.0 mm
05:50 AM 61.9°F16.6°C 52.0°F11.1°C 70% 0.2 mph ENE0.3 kmh ENE 1.9 mph3.1 kmh 29.80 in1009.1 mb 0.00 in0.0 mm 0.00 in0.0 mm 0.00 in0.0 mm
05:49 AM 61.9°F16.6°C 52.0°F11.1°C 70% 0.3 mph ENE0.5 kmh ENE 1.9 mph3.1 kmh 29.80 in1009.1 mb 0.00 in0.0 mm 0.00 in0.0 mm 0.00 in0.0 mm
05:48 AM 61.9°F16.6°C 52.0°F11.1°C 70% 0.3 mph ENE0.5 kmh ENE 1.9 mph3.1 kmh 29.80 in1009.1 mb 0.00 in0.0 mm 0.00 in0.0 mm 0.00 in0.0 mm
05:47 AM 61.9°F16.6°C 52.0°F11.1°C 70% 0.4 mph ENE0.6 kmh ENE 1.9 mph3.1 kmh 29.80 in1009.1 mb 0.00 in0.0 mm 0.00 in0.0 mm 0.00 in0.0 mm
05:46 AM 61.9°F16.6°C 52.0°F11.1°C 70% 0.5 mph ENE0.8 kmh ENE 1.9 mph3.1 kmh 29.80 in1009.1 mb 0.00 in0.0 mm 0.00 in0.0 mm 0.00 in0.0 mm
05:45 AM 61.9°F16.6°C 52.0°F11.1°C 70% 0.7 mph ENE1.1 kmh ENE 1.9 mph3.1 kmh 29.80 in1009.1 mb 0.00 in0.0 mm 0.00 in0.0 mm 0.00 in0.0 mm
05:44 AM 61.9°F16.6°C 52.0°F11.1°C 70% 0.8 mph ENE1.3 kmh ENE 1.9 mph3.1 kmh 29.80 in1009.1 mb 0.00 in0.0 mm 0.00 in0.0 mm 0.00 in0.0 mm
05:43 AM 61.9°F16.6°C 52.0°F11.1°C 70% 0.9 mph ENE1.4 kmh ENE 1.9 mph3.1 kmh 29.80 in1009.1 mb 0.00 in0.0 mm 0.00 in0.0 mm 0.00 in0.0 mm
05:42 AM 61.7°F16.5°C 51.8°F11.0°C 70% 0.9 mph ENE1.4 kmh ENE 1.9 mph3.1 kmh 29.80 in1009.1 mb 0.00 in0.0 mm 0.00 in0.0 mm 0.00 in0.0 mm
05:41 AM 61.7°F16.5°C 51.8°F11.0°C 70% 0.9 mph ENE1.4 kmh ENE 1.9 mph3.1 kmh 29.80 in1009.1 mb 0.00 in0.0 mm 0.00 in0.0 mm 0.00 in0.0 mm
05:40 AM 61.7°F16.5°C 51.8°F11.0°C 70% 0.7 mph ENE1.1 kmh ENE 1.6 mph2.6 kmh 29.80 in1009.1 mb 0.00 in0.0 mm 0.00 in0.0 mm 0.00 in0.0 mm
05:39 AM 61.7°F16.5°C 51.8°F11.0°C 70% 0.7 mph ENE1.1 kmh ENE 1.6 mph2.6 kmh 29.80 in1009.1 mb 0.00 in0.0 mm 0.00 in0.0 mm 0.00 in0.0 mm
05:38 AM 61.7°F16.5°C 51.8°F11.0°C 70% 0.5 mph ENE0.8 kmh ENE 1.6 mph2.6 kmh 29.80 in1009.1 mb 0.00 in0.0 mm 0.00 in0.0 mm 0.00 in0.0 mm
05:37 AM 61.5°F16.4°C 51.6°F10.9°C 70% 0.4 mph E0.6 kmh E 1.6 mph2.6 kmh 29.80 in1009.1 mb 0.00 in0.0 mm 0.00 in0.0 mm 0.00 in0.0 mm
05:36 AM 61.5°F16.4°C 51.6°F10.9°C 70% 0.4 mph E0.6 kmh E 1.6 mph2.6 kmh 29.80 in1009.1 mb 0.00 in0.0 mm 0.00 in0.0 mm 0.00 in0.0 mm
05:35 AM 61.5°F16.4°C 51.3°F10.7°C 69% 0.2 mph E0.3 kmh E 1.6 mph2.6 kmh 29.80 in1009.1 mb 0.00 in0.0 mm 0.00 in0.0 mm 0.00 in0.0 mm
05:34 AM 61.5°F16.4°C 51.3°F10.7°C 69% 0.1 mph ENE0.2 kmh ENE 1.6 mph2.6 kmh 29.80 in1009.1 mb 0.00 in0.0 mm 0.00 in0.0 mm 0.00 in0.0 mm
05:33 AM 61.5°F16.4°C 51.3°F10.7°C 69% 0.1 mph ENE0.2 kmh ENE 1.6 mph2.6 kmh 29.80 in1009.1 mb 0.00 in0.0 mm 0.00 in0.0 mm 0.00 in0.0 mm
05:32 AM 61.5°F16.4°C 51.3°F10.7°C 69% 0.1 mph ENE0.2 kmh ENE 1.6 mph2.6 kmh 29.80 in1009.1 mb 0.00 in0.0 mm 0.00 in0.0 mm 0.00 in0.0 mm
05:31 AM 61.5°F16.4°C 51.3°F10.7°C 69% 0.1 mph ENE0.2 kmh ENE 1.6 mph2.6 kmh 29.80 in1009.1 mb 0.00 in0.0 mm 0.00 in0.0 mm 0.00 in0.0 mm
05:30 AM 61.3°F16.3°C 51.1°F10.6°C 69% Calm Calm -- 29.80 in1009.1 mb 0.00 in0.0 mm 0.00 in0.0 mm 0.00 in0.0 mm
05:29 AM 61.3°F16.3°C 51.1°F10.6°C 69% Calm Calm -- 29.80 in1009.1 mb 0.00 in0.0 mm 0.00 in0.0 mm 0.00 in0.0 mm
05:28 AM 61.3°F16.3°C 51.1°F10.6°C 69% Calm Calm -- 29.80 in1009.1 mb 0.00 in0.0 mm 0.00 in0.0 mm 0.00 in0.0 mm
05:27 AM 61.3°F16.3°C 51.1°F10.6°C 69% Calm Calm -- 29.80 in1009.1 mb 0.00 in0.0 mm 0.00 in0.0 mm 0.00 in0.0 mm
05:26 AM 61.3°F16.3°C 51.1°F10.6°C 69% Calm Calm -- 29.80 in1009.1 mb 0.00 in0.0 mm 0.00 in0.0 mm 0.00 in0.0 mm
05:25 AM 61.3°F16.3°C 51.1°F10.6°C 69% Calm Calm -- 29.80 in1009.1 mb 0.00 in0.0 mm 0.00 in0.0 mm 0.00 in0.0 mm
05:24 AM 61.3°F16.3°C 51.1°F10.6°C 69% Calm Calm -- 29.80 in1009.1 mb 0.00 in0.0 mm 0.00 in0.0 mm 0.00 in0.0 mm
05:23 AM 61.3°F16.3°C 51.1°F10.6°C 69% 0.1 mph NNE0.2 kmh NNE 1.3 mph2.1 kmh 29.80 in1009.1 mb 0.00 in0.0 mm 0.00 in0.0 mm 0.00 in0.0 mm
05:22 AM 61.3°F16.3°C 51.1°F10.6°C 69% 0.1 mph NNE0.2 kmh NNE 1.3 mph2.1 kmh 29.80 in1009.1 mb 0.00 in0.0 mm 0.00 in0.0 mm 0.00 in0.0 mm
05:21 AM 61.2°F16.2°C 50.9°F10.5°C 69% 0.1 mph NNE0.2 kmh NNE 1.3 mph2.1 kmh 29.80 in1009.1 mb 0.00 in0.0 mm 0.00 in0.0 mm 0.00 in0.0 mm
05:20 AM 61.2°F16.2°C 50.9°F10.5°C 69% 0.1 mph NNE0.2 kmh NNE 1.3 mph2.1 kmh 29.80 in1009.1 mb 0.00 in0.0 mm 0.00 in0.0 mm 0.00 in0.0 mm
05:19 AM 61.2°F16.2°C 50.9°F10.5°C 69% 0.1 mph NNE0.2 kmh NNE 1.3 mph2.1 kmh 29.80 in1009.1 mb 0.00 in0.0 mm 0.00 in0.0 mm 0.00 in0.0 mm
05:18 AM 61.2°F16.2°C 50.9°F10.5°C 69% 0.1 mph NNE0.2 kmh NNE 1.3 mph2.1 kmh 29.80 in1009.1 mb 0.00 in0.0 mm 0.00 in0.0 mm 0.00 in0.0 mm
05:17 AM 61.2°F16.2°C 50.9°F10.5°C 69% 0.1 mph NNE0.2 kmh NNE 1.3 mph2.1 kmh 29.80 in1009.1 mb 0.00 in0.0 mm 0.00 in0.0 mm 0.00 in0.0 mm
05:16 AM 61.2°F16.2°C 50.9°F10.5°C 69% 0.1 mph NNE0.2 kmh NNE 1.3 mph2.1 kmh 29.80 in1009.1 mb 0.00 in0.0 mm 0.00 in0.0 mm 0.00 in0.0 mm
05:15 AM 61.2°F16.2°C 50.9°F10.5°C 69% 0.1 mph NNE0.2 kmh NNE 1.3 mph2.1 kmh 29.80 in1009.1 mb 0.00 in0.0 mm 0.00 in0.0 mm 0.00 in0.0 mm
05:14 AM 61.2°F16.2°C 50.9°F10.5°C 69% 0.1 mph NNE0.2 kmh NNE 1.3 mph2.1 kmh 29.80 in1009.1 mb 0.00 in0.0 mm 0.00 in0.0 mm 0.00 in0.0 mm
05:13 AM 61.2°F16.2°C 50.9°F10.5°C 69% 0.1 mph NE0.2 kmh NE 1.3 mph2.1 kmh 29.80 in1009.1 mb 0.00 in0.0 mm 0.00 in0.0 mm 0.00 in0.0 mm
05:12 AM 61.2°F16.2°C 50.9°F10.5°C 69% 0.1 mph ENE0.2 kmh ENE 1.3 mph2.1 kmh 29.80 in1009.1 mb 0.00 in0.0 mm 0.00 in0.0 mm 0.00 in0.0 mm
05:11 AM 61.2°F16.2°C 50.9°F10.5°C 69% 0.1 mph ENE0.2 kmh ENE 1.3 mph2.1 kmh 29.80 in1009.1 mb 0.00 in0.0 mm 0.00 in0.0 mm 0.00 in0.0 mm
05:10 AM 61.2°F16.2°C 50.9°F10.5°C 69% 0.1 mph ENE0.2 kmh ENE 1.3 mph2.1 kmh 29.80 in1009.1 mb 0.00 in0.0 mm 0.00 in0.0 mm 0.00 in0.0 mm
05:09 AM 61.2°F16.2°C 50.9°F10.5°C 69% 0.1 mph ENE0.2 kmh ENE 1.3 mph2.1 kmh 29.80 in1009.1 mb 0.00 in0.0 mm 0.00 in0.0 mm 0.00 in0.0 mm
05:08 AM 61.2°F16.2°C 50.9°F10.5°C 69% 0.1 mph ENE0.2 kmh ENE 1.3 mph2.1 kmh 29.80 in1009.1 mb 0.00 in0.0 mm 0.00 in0.0 mm 0.00 in0.0 mm
05:07 AM 61.2°F16.2°C 50.9°F10.5°C 69% 0.2 mph ENE0.3 kmh ENE 1.3 mph2.1 kmh 29.80 in1009.1 mb 0.00 in0.0 mm 0.00 in0.0 mm 0.00 in0.0 mm
05:06 AM 61.2°F16.2°C 50.9°F10.5°C 69% 0.1 mph ENE0.2 kmh ENE 1.3 mph2.1 kmh 29.80 in1009.1 mb 0.00 in0.0 mm 0.00 in0.0 mm 0.00 in0.0 mm
05:05 AM 61.2°F16.2°C 50.9°F10.5°C 69% 0.1 mph ENE0.2 kmh ENE 1.3 mph2.1 kmh 29.80 in1009.1 mb 0.00 in0.0 mm 0.00 in0.0 mm 0.00 in0.0 mm
05:04 AM 61.2°F16.2°C 50.9°F10.5°C 69% 0.1 mph ENE0.2 kmh ENE 1.3 mph2.1 kmh 29.80 in1009.1 mb 0.00 in0.0 mm 0.00 in0.0 mm 0.00 in0.0 mm
05:03 AM 61.2°F16.2°C 50.9°F10.5°C 69% 0.2 mph NE0.3 kmh NE 1.3 mph2.1 kmh 29.80 in1009.1 mb 0.00 in0.0 mm 0.00 in0.0 mm 0.00 in0.0 mm
05:02 AM 61.2°F16.2°C 50.9°F10.5°C 69% 0.2 mph NE0.3 kmh NE 1.3 mph2.1 kmh 29.80 in1009.1 mb 0.00 in0.0 mm 0.00 in0.0 mm 0.00 in0.0 mm
05:01 AM 61.2°F16.2°C 50.9°F10.5°C 69% 0.2 mph NE0.3 kmh NE 1.3 mph2.1 kmh 29.80 in1009.1 mb 0.00 in0.0 mm 0.00 in0.0 mm 0.00 in0.0 mm
05:00 AM 61.2°F16.2°C 50.9°F10.5°C 69% 0.2 mph NE0.3 kmh NE 1.3 mph2.1 kmh 29.80 in1009.1 mb 0.00 in0.0 mm 0.00 in0.0 mm 0.00 in0.0 mm
04:59 AM 61.2°F16.2°C 50.9°F10.5°C 69% 0.3 mph NE0.5 kmh NE 1.3 mph2.1 kmh 29.83 in1010.2 mb 0.00 in0.0 mm 0.00 in0.0 mm 0.00 in0.0 mm
04:58 AM 61.2°F16.2°C 50.5°F10.3°C 68% 0.4 mph ENE0.6 kmh ENE 1.3 mph2.1 kmh 29.83 in1010.2 mb 0.00 in0.0 mm 0.00 in0.0 mm 0.00 in0.0 mm
04:57 AM 61.2°F16.2°C 50.5°F10.3°C 68% 0.4 mph ENE0.6 kmh ENE 1.3 mph2.1 kmh 29.83 in1010.2 mb 0.00 in0.0 mm 0.00 in0.0 mm 0.00 in0.0 mm
04:56 AM 61.2°F16.2°C 50.5°F10.3°C 68% 0.4 mph NE0.6 kmh NE 1.3 mph2.1 kmh 29.83 in1010.2 mb 0.00 in0.0 mm 0.00 in0.0 mm 0.00 in0.0 mm
04:55 AM 61.2°F16.2°C 50.5°F10.3°C 68% 0.4 mph NE0.6 kmh NE 1.3 mph2.1 kmh 29.83 in1010.2 mb 0.00 in0.0 mm 0.00 in0.0 mm 0.00 in0.0 mm
04:54 AM 61.0°F16.1°C 50.3°F10.2°C 68% 0.6 mph NE1.0 kmh NE 1.6 mph2.6 kmh 29.83 in1010.2 mb 0.00 in0.0 mm 0.00 in0.0 mm 0.00 in0.0 mm
04:53 AM 61.0°F16.1°C 50.3°F10.2°C 68% 0.6 mph NE1.0 kmh NE 1.6 mph2.6 kmh 29.83 in1010.2 mb 0.00 in0.0 mm 0.00 in0.0 mm 0.00 in0.0 mm
04:52 AM 61.0°F16.1°C 50.3°F10.2°C 68% 0.4 mph NE0.6 kmh NE 1.6 mph2.6 kmh 29.83 in1010.2 mb 0.00 in0.0 mm 0.00 in0.0 mm 0.00 in0.0 mm
04:51 AM 61.0°F16.1°C 50.3°F10.2°C 68% 0.5 mph NE0.8 kmh NE 1.6 mph2.6 kmh 29.83 in1010.2 mb 0.00 in0.0 mm 0.00 in0.0 mm 0.00 in0.0 mm
04:50 AM 61.0°F16.1°C 50.3°F10.2°C 68% 0.6 mph NE1.0 kmh NE 1.6 mph2.6 kmh 29.83 in1010.2 mb 0.00 in0.0 mm 0.00 in0.0 mm 0.00 in0.0 mm
04:49 AM 61.0°F16.1°C 50.3°F10.2°C 68% 0.6 mph NE1.0 kmh NE 1.6 mph2.6 kmh 29.83 in1010.2 mb 0.00 in0.0 mm 0.00 in0.0 mm 0.00 in0.0 mm
04:48 AM 61.0°F16.1°C 50.3°F10.2°C 68% 0.5 mph NE0.8 kmh NE 1.6 mph2.6 kmh 29.83 in1010.2 mb 0.00 in0.0 mm 0.00 in0.0 mm 0.00 in0.0 mm
04:47 AM 61.0°F16.1°C 50.3°F10.2°C 68% 0.5 mph NE0.8 kmh NE 1.6 mph2.6 kmh 29.83 in1010.2 mb 0.00 in0.0 mm 0.00 in0.0 mm 0.00 in0.0 mm
04:46 AM 61.0°F16.1°C 50.3°F10.2°C 68% 0.5 mph NE0.8 kmh NE 1.6 mph2.6 kmh 29.83 in1010.2 mb 0.00 in0.0 mm 0.00 in0.0 mm 0.00 in0.0 mm
04:45 AM 61.0°F16.1°C 50.3°F10.2°C 68% 0.5 mph NE0.8 kmh NE 1.6 mph2.6 kmh 29.83 in1010.2 mb 0.00 in0.0 mm 0.00 in0.0 mm 0.00 in0.0 mm
04:44 AM 61.0°F16.1°C 50.3°F10.2°C 68% 0.4 mph NNE0.6 kmh NNE 1.6 mph2.6 kmh 29.80 in1009.1 mb 0.00 in0.0 mm 0.00 in0.0 mm 0.00 in0.0 mm
04:43 AM 61.0°F16.1°C 50.3°F10.2°C 68% 0.3 mph NNE0.5 kmh NNE 1.6 mph2.6 kmh 29.80 in1009.1 mb 0.00 in0.0 mm 0.00 in0.0 mm 0.00 in0.0 mm
04:42 AM 61.0°F16.1°C 50.3°F10.2°C 68% 0.3 mph NNE0.5 kmh NNE 1.6 mph2.6 kmh 29.80 in1009.1 mb 0.00 in0.0 mm 0.00 in0.0 mm 0.00 in0.0 mm
04:41 AM 61.0°F16.1°C 50.3°F10.2°C 68% 0.3 mph NNE0.5 kmh NNE 1.6 mph2.6 kmh 29.80 in1009.1 mb 0.00 in0.0 mm 0.00 in0.0 mm 0.00 in0.0 mm
04:40 AM 61.0°F16.1°C 50.3°F10.2°C 68% 0.2 mph NE0.3 kmh NE 1.6 mph2.6 kmh 29.80 in1009.1 mb 0.00 in0.0 mm 0.00 in0.0 mm 0.00 in0.0 mm
04:39 AM 61.0°F16.1°C 50.3°F10.2°C 68% 0.1 mph NE0.2 kmh NE 1.6 mph2.6 kmh 29.80 in1009.1 mb 0.00 in0.0 mm 0.00 in0.0 mm 0.00 in0.0 mm
04:38 AM 61.0°F16.1°C 50.3°F10.2°C 68% 0.2 mph NE0.3 kmh NE 2.2 mph3.5 kmh 29.80 in1009.1 mb 0.00 in0.0 mm 0.00 in0.0 mm 0.00 in0.0 mm
04:37 AM 60.8°F16.0°C 50.2°F10.1°C 68% 0.4 mph NNE0.6 kmh NNE 2.2 mph3.5 kmh 29.80 in1009.1 mb 0.00 in0.0 mm 0.00 in0.0 mm 0.00 in0.0 mm
04:36 AM 60.8°F16.0°C 50.2°F10.1°C 68% 0.4 mph NNE0.6 kmh NNE 2.2 mph3.5 kmh 29.80 in1009.1 mb 0.00 in0.0 mm 0.00 in0.0 mm 0.00 in0.0 mm
04:35 AM 60.8°F16.0°C 50.2°F10.1°C 68% 0.4 mph NNE0.6 kmh NNE 2.2 mph3.5 kmh 29.80 in1009.1 mb 0.00 in0.0 mm 0.00 in0.0 mm 0.00 in0.0 mm
04:34 AM 60.8°F16.0°C 50.2°F10.1°C 68% 0.5 mph NE0.8 kmh NE 2.2 mph3.5 kmh 29.80 in1009.1 mb 0.00 in0.0 mm 0.00 in0.0 mm 0.00 in0.0 mm
04:33 AM 60.8°F16.0°C 50.2°F10.1°C 68% 0.5 mph NE0.8 kmh NE 2.2 mph3.5 kmh 29.80 in1009.1 mb 0.00 in0.0 mm 0.00 in0.0 mm 0.00 in0.0 mm
04:32 AM 60.8°F16.0°C 50.2°F10.1°C 68% 0.5 mph NE0.8 kmh NE 2.2 mph3.5 kmh 29.80 in1009.1 mb 0.00 in0.0 mm 0.00 in0.0 mm 0.00 in0.0 mm
04:31 AM 60.8°F16.0°C 50.2°F10.1°C 68% 0.6 mph NE1.0 kmh NE 2.2 mph3.5 kmh 29.80 in1009.1 mb 0.00 in0.0 mm 0.00 in0.0 mm 0.00 in0.0 mm
04:30 AM 60.8°F16.0°C 50.2°F10.1°C 68% 0.5 mph NE0.8 kmh NE 2.2 mph3.5 kmh 29.80 in1009.1 mb 0.00 in0.0 mm 0.00 in0.0 mm 0.00 in0.0 mm
04:29 AM 60.8°F16.0°C 49.8°F9.9°C 67% 0.5 mph NE0.8 kmh NE 2.2 mph3.5 kmh 29.80 in1009.1 mb 0.00 in0.0 mm 0.00 in0.0 mm 0.00 in0.0 mm
04:28 AM 60.8°F16.0°C 49.8°F9.9°C 67% 0.4 mph NE0.6 kmh NE 2.2 mph3.5 kmh 29.80 in1009.1 mb 0.00 in0.0 mm 0.00 in0.0 mm 0.00 in0.0 mm
04:27 AM 60.8°F16.0°C 49.8°F9.9°C 67% 0.2 mph NE0.3 kmh NE 1.3 mph2.1 kmh 29.80 in1009.1 mb 0.00 in0.0 mm 0.00 in0.0 mm 0.00 in0.0 mm
04:26 AM 60.6°F15.9°C 50.0°F10.0°C 68% 0.3 mph NE0.5 kmh NE 1.3 mph2.1 kmh 29.80 in1009.1 mb 0.00 in0.0 mm 0.00 in0.0 mm 0.00 in0.0 mm
04:25 AM 60.6°F15.9°C 50.0°F10.0°C 68% 0.3 mph NE0.5 kmh NE 1.3 mph2.1 kmh 29.80 in1009.1 mb 0.00 in0.0 mm 0.00 in0.0 mm 0.00 in0.0 mm
04:24 AM 60.6°F15.9°C 50.0°F10.0°C 68% 0.2 mph NE0.3 kmh NE 1.3 mph2.1 kmh 29.80 in1009.1 mb 0.00 in0.0 mm 0.00 in0.0 mm 0.00 in0.0 mm
04:23 AM 60.6°F15.9°C 50.0°F10.0°C 68% 0.2 mph NE0.3 kmh NE 1.3 mph2.1 kmh 29.80 in1009.1 mb 0.00 in0.0 mm 0.00 in0.0 mm 0.00 in0.0 mm
04:22 AM 60.6°F15.9°C 50.0°F10.0°C 68% 0.2 mph NE0.3 kmh NE 1.3 mph2.1 kmh 29.80 in1009.1 mb 0.00 in0.0 mm 0.00 in0.0 mm 0.00 in0.0 mm
04:21 AM 60.6°F15.9°C 49.6°F9.8°C 67% 0.1 mph ENE0.2 kmh ENE 1.3 mph2.1 kmh 29.80 in1009.1 mb 0.00 in0.0 mm 0.00 in0.0 mm 0.00 in0.0 mm
04:20 AM 60.6°F15.9°C 49.6°F9.8°C 67% 0.1 mph ENE0.2 kmh ENE 1.3 mph2.1 kmh 29.80 in1009.1 mb 0.00 in0.0 mm 0.00 in0.0 mm 0.00 in0.0 mm
04:19 AM 60.6°F15.9°C 49.6°F9.8°C 67% 0.1 mph ENE0.2 kmh ENE 1.3 mph2.1 kmh 29.80 in1009.1 mb 0.00 in0.0 mm 0.00 in0.0 mm 0.00 in0.0 mm
04:18 AM 60.6°F15.9°C 49.6°F9.8°C 67% 0.2 mph E0.3 kmh E 1.3 mph2.1 kmh 29.80 in1009.1 mb 0.00 in0.0 mm 0.00 in0.0 mm 0.00 in0.0 mm
04:17 AM 60.6°F15.9°C 49.6°F9.8°C 67% 0.2 mph E0.3 kmh E 1.3 mph2.1 kmh 29.80 in1009.1 mb 0.00 in0.0 mm 0.00 in0.0 mm 0.00 in0.0 mm
04:16 AM 60.6°F15.9°C 49.6°F9.8°C 67% 0.2 mph ESE0.3 kmh ESE 1.3 mph2.1 kmh 29.80 in1009.1 mb 0.00 in0.0 mm 0.00 in0.0 mm 0.00 in0.0 mm
04:15 AM 60.6°F15.9°C 49.6°F9.8°C 67% 0.2 mph ESE0.3 kmh ESE 1.3 mph2.1 kmh 29.80 in1009.1 mb 0.00 in0.0 mm 0.00 in0.0 mm 0.00 in0.0 mm
04:14 AM 60.6°F15.9°C 49.6°F9.8°C 67% 0.2 mph E0.3 kmh E 1.3 mph2.1 kmh 29.83 in1010.2 mb 0.00 in0.0 mm 0.00 in0.0 mm 0.00 in0.0 mm
04:13 AM 60.6°F15.9°C 49.6°F9.8°C 67% 0.2 mph E0.3 kmh E 1.3 mph2.1 kmh 29.83 in1010.2 mb 0.00 in0.0 mm 0.00 in0.0 mm 0.00 in0.0 mm
04:12 AM 60.6°F15.9°C 49.6°F9.8°C 67% 0.2 mph E0.3 kmh E 1.3 mph2.1 kmh 29.83 in1010.2 mb 0.00 in0.0 mm 0.00 in0.0 mm 0.00 in0.0 mm
04:11 AM 60.6°F15.9°C 49.6°F9.8°C 67% 0.2 mph E0.3 kmh E 1.3 mph2.1 kmh 29.83 in1010.2 mb 0.00 in0.0 mm 0.00 in0.0 mm 0.00 in0.0 mm
04:10 AM 60.6°F15.9°C 49.6°F9.8°C 67% 0.2 mph E0.3 kmh E 1.3 mph2.1 kmh 29.83 in1010.2 mb 0.00 in0.0 mm 0.00 in0.0 mm 0.00 in0.0 mm
04:09 AM 60.6°F15.9°C 49.6°F9.8°C 67% 0.2 mph E0.3 kmh E 1.3 mph2.1 kmh 29.83 in1010.2 mb 0.00 in0.0 mm 0.00 in0.0 mm 0.00 in0.0 mm
04:08 AM 60.4°F15.8°C 49.4°F9.7°C 67% 0.1 mph NNW0.2 kmh NNW 1.3 mph2.1 kmh 29.83 in1010.2 mb 0.00 in0.0 mm 0.00 in0.0 mm 0.00 in0.0 mm
04:07 AM 60.4°F15.8°C 49.4°F9.7°C 67% 0.1 mph NNW0.2 kmh NNW 1.3 mph2.1 kmh 29.83 in1010.2 mb 0.00 in0.0 mm 0.00 in0.0 mm 0.00 in0.0 mm
04:06 AM 60.4°F15.8°C 49.4°F9.7°C 67% 0.1 mph NNW0.2 kmh NNW 1.3 mph2.1 kmh 29.83 in1010.2 mb 0.00 in0.0 mm 0.00 in0.0 mm 0.00 in0.0 mm
04:05 AM 60.4°F15.8°C 49.4°F9.7°C 67% 0.1 mph NNW0.2 kmh NNW 1.3 mph2.1 kmh 29.83 in1010.2 mb 0.00 in0.0 mm 0.00 in0.0 mm 0.00 in0.0 mm
04:04 AM 60.4°F15.8°C 49.4°F9.7°C 67% 0.1 mph NNW0.2 kmh NNW 1.3 mph2.1 kmh 29.83 in1010.2 mb 0.00 in0.0 mm 0.00 in0.0 mm 0.00 in0.0 mm
04:03 AM 60.4°F15.8°C 49.4°F9.7°C 67% Calm Calm -- 29.83 in1010.2 mb 0.00 in0.0 mm 0.00 in0.0 mm 0.00 in0.0 mm
04:02 AM 60.4°F15.8°C 49.4°F9.7°C 67% Calm Calm -- 29.83 in1010.2 mb 0.00 in0.0 mm 0.00 in0.0 mm 0.00 in0.0 mm
04:01 AM 60.4°F15.8°C 49.4°F9.7°C 67% Calm Calm -- 29.83 in1010.2 mb 0.00 in0.0 mm 0.00 in0.0 mm 0.00 in0.0 mm
04:00 AM 60.4°F15.8°C 49.4°F9.7°C 67% Calm Calm -- 29.83 in1010.2 mb 0.00 in0.0 mm 0.00 in0.0 mm 0.00 in0.0 mm
03:59 AM 60.4°F15.8°C 49.4°F9.7°C 67% Calm Calm -- 29.83 in1010.2 mb 0.00 in0.0 mm 0.00 in0.0 mm 0.00 in0.0 mm
03:58 AM 60.4°F15.8°C 49.4°F9.7°C 67% 0.1 mph ENE0.2 kmh ENE 1.9 mph3.1 kmh 29.83 in1010.2 mb 0.00 in0.0 mm 0.00 in0.0 mm 0.00 in0.0 mm
03:57 AM 60.4°F15.8°C 49.4°F9.7°C 67% 0.1 mph ENE0.2 kmh ENE 1.9 mph3.1 kmh 29.83 in1010.2 mb 0.00 in0.0 mm 0.00 in0.0 mm 0.00 in0.0 mm
03:56 AM 60.3°F15.7°C 48.9°F9.4°C 66% 0.2 mph ENE0.3 kmh ENE 1.9 mph3.1 kmh 29.83 in1010.2 mb 0.00 in0.0 mm 0.00 in0.0 mm 0.00 in0.0 mm
03:55 AM 60.3°F15.7°C 48.9°F9.4°C 66% 0.3 mph ENE0.5 kmh ENE 1.9 mph3.1 kmh 29.83 in1010.2 mb 0.00 in0.0 mm 0.00 in0.0 mm 0.00 in0.0 mm
03:54 AM 60.3°F15.7°C 48.9°F9.4°C 66% 0.3 mph ENE0.5 kmh ENE 1.9 mph3.1 kmh 29.83 in1010.2 mb 0.00 in0.0 mm 0.00 in0.0 mm 0.00 in0.0 mm
03:53 AM 60.3°F15.7°C 48.9°F9.4°C 66% 0.3 mph ENE0.5 kmh ENE 1.9 mph3.1 kmh 29.83 in1010.2 mb 0.00 in0.0 mm 0.00 in0.0 mm 0.00 in0.0 mm
03:52 AM 60.3°F15.7°C 48.9°F9.4°C 66% 0.3 mph ENE0.5 kmh ENE 1.9 mph3.1 kmh 29.83 in1010.2 mb 0.00 in0.0 mm 0.00 in0.0 mm 0.00 in0.0 mm
03:51 AM 60.3°F15.7°C 48.9°F9.4°C 66% 0.3 mph ENE0.5 kmh ENE 1.9 mph3.1 kmh 29.83 in1010.2 mb 0.00 in0.0 mm 0.00 in0.0 mm 0.00 in0.0 mm
03:50 AM 60.3°F15.7°C 48.9°F9.4°C 66% 0.3 mph ENE0.5 kmh ENE 1.9 mph3.1 kmh 29.83 in1010.2 mb 0.00 in0.0 mm 0.00 in0.0 mm 0.00 in0.0 mm
03:49 AM 60.3°F15.7°C 48.9°F9.4°C 66% 0.3 mph ENE0.5 kmh ENE 1.9 mph3.1 kmh 29.83 in1010.2 mb 0.00 in0.0 mm 0.00 in0.0 mm 0.00 in0.0 mm
03:48 AM 60.3°F15.7°C 48.9°F9.4°C 66% 0.3 mph E0.5 kmh E 1.6 mph2.6 kmh 29.83 in1010.2 mb 0.00 in0.0 mm 0.00 in0.0 mm 0.00 in0.0 mm
03:47 AM 60.1°F15.6°C 48.7°F9.3°C 66% 0.3 mph E0.5 kmh E 1.6 mph2.6 kmh 29.83 in1010.2 mb 0.00 in0.0 mm 0.00 in0.0 mm 0.00 in0.0 mm
03:46 AM 60.1°F15.6°C 48.7°F9.3°C 66% 0.3 mph E0.5 kmh E 1.6 mph2.6 kmh 29.83 in1010.2 mb 0.00 in0.0 mm 0.00 in0.0 mm 0.00 in0.0 mm
03:45 AM 60.1°F15.6°C 48.7°F9.3°C 66% 0.1 mph E0.2 kmh E 1.6 mph2.6 kmh 29.83 in1010.2 mb 0.00 in0.0 mm 0.00 in0.0 mm 0.00 in0.0 mm
03:44 AM 60.1°F15.6°C 48.7°F9.3°C 66% 0.1 mph E0.2 kmh E 1.6 mph2.6 kmh 29.83 in1010.2 mb 0.00 in0.0 mm 0.00 in0.0 mm 0.00 in0.0 mm
03:43 AM 60.1°F15.6°C 48.7°F9.3°C 66% 0.1 mph E0.2 kmh E 1.6 mph2.6 kmh 29.83 in1010.2 mb 0.00 in0.0 mm 0.00 in0.0 mm 0.00 in0.0 mm
03:42 AM 60.1°F15.6°C 48.7°F9.3°C 66% 0.1 mph E0.2 kmh E 1.6 mph2.6 kmh 29.83 in1010.2 mb 0.00 in0.0 mm 0.00 in0.0 mm 0.00 in0.0 mm
03:41 AM 60.1°F15.6°C 48.7°F9.3°C 66% 0.1 mph E0.2 kmh E 1.6 mph2.6 kmh 29.83 in1010.2 mb 0.00 in0.0 mm 0.00 in0.0 mm 0.00 in0.0 mm
03:40 AM 60.1°F15.6°C 48.7°F9.3°C 66% 0.1 mph E0.2 kmh E 1.6 mph2.6 kmh 29.83 in1010.2 mb 0.00 in0.0 mm 0.00 in0.0 mm 0.00 in0.0 mm
03:39 AM 60.1°F15.6°C 48.7°F9.3°C 66% 0.1 mph E0.2 kmh E 1.6 mph2.6 kmh 29.83 in1010.2 mb 0.00 in0.0 mm 0.00 in0.0 mm 0.00 in0.0 mm
03:38 AM 60.1°F15.6°C 48.7°F9.3°C 66% Calm Calm -- 29.83 in1010.2 mb 0.00 in0.0 mm 0.00 in0.0 mm 0.00 in0.0 mm
03:37 AM 60.1°F15.6°C 48.7°F9.3°C 66% Calm Calm -- 29.83 in1010.2 mb 0.00 in0.0 mm 0.00 in0.0 mm 0.00 in0.0 mm
03:36 AM 60.1°F15.6°C 48.3°F9.1°C 65% Calm Calm -- 29.83 in1010.2 mb 0.00 in0.0 mm 0.00 in0.0 mm 0.00 in0.0 mm
03:35 AM 59.9°F15.5°C 48.1°F8.9°C 65% Calm Calm -- 29.83 in1010.2 mb 0.00 in0.0 mm 0.00 in0.0 mm 0.00 in0.0 mm
03:34 AM 59.9°F15.5°C 48.1°F8.9°C 65% 0.1 mph NE0.2 kmh NE 1.3 mph2.1 kmh 29.83 in1010.2 mb 0.00 in0.0 mm 0.00 in0.0 mm 0.00 in0.0 mm
03:33 AM 59.9°F15.5°C 48.1°F8.9°C 65% 0.1 mph NE0.2 kmh NE 1.3 mph2.1 kmh 29.83 in1010.2 mb 0.00 in0.0 mm 0.00 in0.0 mm 0.00 in0.0 mm
03:32 AM 59.9°F15.5°C 48.1°F8.9°C 65% 0.1 mph NE0.2 kmh NE 1.3 mph2.1 kmh 29.83 in1010.2 mb 0.00 in0.0 mm 0.00 in0.0 mm 0.00 in0.0 mm
03:31 AM 59.9°F15.5°C 48.1°F8.9°C 65% 0.1 mph NE0.2 kmh NE 1.3 mph2.1 kmh 29.83 in1010.2 mb 0.00 in0.0 mm 0.00 in0.0 mm 0.00 in0.0 mm
03:30 AM 59.9°F15.5°C 48.1°F8.9°C 65% 0.1 mph NE0.2 kmh NE 1.3 mph2.1 kmh 29.83 in1010.2 mb 0.00 in0.0 mm 0.00 in0.0 mm 0.00 in0.0 mm
03:29 AM 59.9°F15.5°C 48.1°F8.9°C 65% 0.1 mph NE0.2 kmh NE 1.3 mph2.1 kmh 29.83 in1010.2 mb 0.00 in0.0 mm 0.00 in0.0 mm 0.00 in0.0 mm
03:28 AM 59.9°F15.5°C 48.1°F8.9°C 65% 0.1 mph NE0.2 kmh NE 1.3 mph2.1 kmh 29.83 in1010.2 mb 0.00 in0.0 mm 0.00 in0.0 mm 0.00 in0.0 mm
03:27 AM 59.9°F15.5°C 48.1°F8.9°C 65% 0.1 mph NE0.2 kmh NE 1.3 mph2.1 kmh 29.83 in1010.2 mb 0.00 in0.0 mm 0.00 in0.0 mm 0.00 in0.0 mm
03:26 AM 59.9°F15.5°C 48.1°F8.9°C 65% 0.1 mph NE0.2 kmh NE 1.3 mph2.1 kmh 29.83 in1010.2 mb 0.00 in0.0 mm 0.00 in0.0 mm 0.00 in0.0 mm
03:25 AM 59.9°F15.5°C 48.1°F8.9°C 65% 0.1 mph NE0.2 kmh NE 1.3 mph2.1 kmh 29.83 in1010.2 mb 0.00 in0.0 mm 0.00 in0.0 mm 0.00 in0.0 mm
03:24 AM 59.9°F15.5°C 48.1°F8.9°C 65% Calm Calm -- 29.83 in1010.2 mb 0.00 in0.0 mm 0.00 in0.0 mm 0.00 in0.0 mm
03:23 AM 59.9°F15.5°C 48.1°F8.9°C 65% Calm Calm -- 29.83 in1010.2 mb 0.00 in0.0 mm 0.00 in0.0 mm 0.00 in0.0 mm
03:22 AM 59.9°F15.5°C 48.1°F8.9°C 65% 0.1 mph NNE0.2 kmh NNE 1.3 mph2.1 kmh 29.83 in1010.2 mb 0.00 in0.0 mm 0.00 in0.0 mm 0.00 in0.0 mm
03:21 AM 59.9°F15.5°C 48.1°F8.9°C 65% 0.1 mph NNE0.2 kmh NNE 1.3 mph2.1 kmh 29.83 in1010.2 mb 0.00 in0.0 mm 0.00 in0.0 mm 0.00 in0.0 mm
03:20 AM 59.9°F15.5°C 48.1°F8.9°C 65% 0.1 mph NNE0.2 kmh NNE 1.3 mph2.1 kmh 29.83 in1010.2 mb 0.00 in0.0 mm 0.00 in0.0 mm 0.00 in0.0 mm
03:19 AM 59.9°F15.5°C 48.1°F8.9°C 65% 0.1 mph NNE0.2 kmh NNE 1.3 mph2.1 kmh 29.83 in1010.2 mb 0.00 in0.0 mm 0.00 in0.0 mm 0.00 in0.0 mm
03:18 AM 59.9°F15.5°C 48.1°F8.9°C 65% 0.1 mph NNE0.2 kmh NNE 1.3 mph2.1 kmh 29.83 in1010.2 mb 0.00 in0.0 mm 0.00 in0.0 mm 0.00 in0.0 mm
03:17 AM 59.9°F15.5°C 48.1°F8.9°C 65% 0.1 mph NNE0.2 kmh NNE 1.3 mph2.1 kmh 29.83 in1010.2 mb 0.00 in0.0 mm 0.00 in0.0 mm 0.00 in0.0 mm
03:16 AM 59.9°F15.5°C 48.1°F8.9°C 65% 0.1 mph NNE0.2 kmh NNE 1.3 mph2.1 kmh 29.83 in1010.2 mb 0.00 in0.0 mm 0.00 in0.0 mm 0.00 in0.0 mm
03:15 AM 59.9°F15.5°C 48.1°F8.9°C 65% 0.1 mph NNE0.2 kmh NNE 1.3 mph2.1 kmh 29.83 in1010.2 mb 0.00 in0.0 mm 0.00 in0.0 mm 0.00 in0.0 mm
03:14 AM 59.9°F15.5°C 48.1°F8.9°C 65% 0.1 mph NNE0.2 kmh NNE 1.3 mph2.1 kmh 29.83 in1010.2 mb 0.00 in0.0 mm 0.00 in0.0 mm 0.00 in0.0 mm
03:13 AM 59.7°F15.4°C 47.9°F8.8°C 65% 0.1 mph NNE0.2 kmh NNE 1.3 mph2.1 kmh 29.83 in1010.2 mb 0.00 in0.0 mm 0.00 in0.0 mm 0.00 in0.0 mm
03:12 AM 59.7°F15.4°C 47.9°F8.8°C 65% Calm Calm -- 29.83 in1010.2 mb 0.00 in0.0 mm 0.00 in0.0 mm 0.00 in0.0 mm
03:11 AM 59.7°F15.4°C 47.9°F8.8°C 65% Calm Calm -- 29.83 in1010.2 mb 0.00 in0.0 mm 0.00 in0.0 mm 0.00 in0.0 mm
03:10 AM 59.9°F15.5°C 48.1°F8.9°C 65% Calm Calm -- 29.83 in1010.2 mb 0.00 in0.0 mm 0.00 in0.0 mm 0.00 in0.0 mm
03:09 AM 59.9°F15.5°C 48.1°F8.9°C 65% Calm Calm -- 29.83 in1010.2 mb 0.00 in0.0 mm 0.00 in0.0 mm 0.00 in0.0 mm
03:08 AM 59.9°F15.5°C 47.7°F8.7°C 64% Calm Calm -- 29.83 in1010.2 mb 0.00 in0.0 mm 0.00 in0.0 mm 0.00 in0.0 mm
03:07 AM 59.9°F15.5°C 47.7°F8.7°C 64% Calm Calm -- 29.83 in1010.2 mb 0.00 in0.0 mm 0.00 in0.0 mm 0.00 in0.0 mm
03:06 AM 59.7°F15.4°C 47.5°F8.6°C 64% 0.2 mph NNE0.3 kmh NNE 1.6 mph2.6 kmh 29.83 in1010.2 mb 0.00 in0.0 mm 0.00 in0.0 mm 0.00 in0.0 mm
03:05 AM 59.7°F15.4°C 47.5°F8.6°C 64% 0.2 mph NNE0.3 kmh NNE 1.6 mph2.6 kmh 29.83 in1010.2 mb 0.00 in0.0 mm 0.00 in0.0 mm 0.00 in0.0 mm
03:04 AM 59.7°F15.4°C 47.5°F8.6°C 64% 0.2 mph NNE0.3 kmh NNE 1.6 mph2.6 kmh 29.83 in1010.2 mb 0.00 in0.0 mm 0.00 in0.0 mm 0.00 in0.0 mm
03:03 AM 59.9°F15.5°C 47.7°F8.7°C 64% 0.4 mph NE0.6 kmh NE 2.8 mph4.5 kmh 29.83 in1010.2 mb 0.00 in0.0 mm 0.00 in0.0 mm 0.00 in0.0 mm
03:02 AM 59.9°F15.5°C 47.7°F8.7°C 64% 0.5 mph NE0.8 kmh NE 2.8 mph4.5 kmh 29.83 in1010.2 mb 0.00 in0.0 mm 0.00 in0.0 mm 0.00 in0.0 mm
03:01 AM 59.9°F15.5°C 47.7°F8.7°C 64% 0.8 mph NE1.3 kmh NE 3.8 mph6.1 kmh 29.83 in1010.2 mb 0.00 in0.0 mm 0.00 in0.0 mm 0.00 in0.0 mm
03:00 AM 59.9°F15.5°C 47.7°F8.7°C 64% 1.0 mph NE1.6 kmh NE 3.8 mph6.1 kmh 29.83 in1010.2 mb 0.00 in0.0 mm 0.00 in0.0 mm 0.00 in0.0 mm
02:59 AM 59.9°F15.5°C 47.7°F8.7°C 64% 1.4 mph NE2.3 kmh NE 4.1 mph6.6 kmh 29.83 in1010.2 mb 0.00 in0.0 mm 0.00 in0.0 mm 0.00 in0.0 mm
02:58 AM 59.9°F15.5°C 47.7°F8.7°C 64% 1.7 mph NE2.7 kmh NE 4.1 mph6.6 kmh 29.83 in1010.2 mb 0.00 in0.0 mm 0.00 in0.0 mm 0.00 in0.0 mm
02:57 AM 59.9°F15.5°C 47.7°F8.7°C 64% 2.1 mph ENE3.4 kmh ENE 4.1 mph6.6 kmh 29.83 in1010.2 mb 0.00 in0.0 mm 0.00 in0.0 mm 0.00 in0.0 mm
02:56 AM 59.9°F15.5°C 47.7°F8.7°C 64% 2.2 mph ENE3.5 kmh ENE 4.1 mph6.6 kmh 29.83 in1010.2 mb 0.00 in0.0 mm 0.00 in0.0 mm 0.00 in0.0 mm
02:55 AM 59.9°F15.5°C 47.7°F8.7°C 64% 2.1 mph ENE3.4 kmh ENE 4.1 mph6.6 kmh 29.83 in1010.2 mb 0.00 in0.0 mm 0.00 in0.0 mm 0.00 in0.0 mm
02:54 AM 59.9°F15.5°C 47.7°F8.7°C 64% 2.3 mph ENE3.7 kmh ENE 4.1 mph6.6 kmh 29.83 in1010.2 mb 0.00 in0.0 mm 0.00 in0.0 mm 0.00 in0.0 mm
02:53 AM 59.9°F15.5°C 47.7°F8.7°C 64% 2.7 mph ENE4.3 kmh ENE 4.1 mph6.6 kmh 29.83 in1010.2 mb 0.00 in0.0 mm 0.00 in0.0 mm 0.00 in0.0 mm
02:52 AM 59.9°F15.5°C 47.7°F8.7°C 64% 2.6 mph ENE4.2 kmh ENE 4.1 mph6.6 kmh 29.83 in1010.2 mb 0.00 in0.0 mm 0.00 in0.0 mm 0.00 in0.0 mm
02:51 AM 59.9°F15.5°C 47.7°F8.7°C 64% 2.5 mph ENE4.0 kmh ENE 4.1 mph6.6 kmh 29.83 in1010.2 mb 0.00 in0.0 mm 0.00 in0.0 mm 0.00 in0.0 mm
02:50 AM 59.9°F15.5°C 47.7°F8.7°C 64% 2.4 mph NE3.9 kmh NE 4.1 mph6.6 kmh 29.83 in1010.2 mb 0.00 in0.0 mm 0.00 in0.0 mm 0.00 in0.0 mm
02:49 AM 59.9°F15.5°C 47.7°F8.7°C 64% 2.1 mph NE3.4 kmh NE 4.1 mph6.6 kmh 29.83 in1010.2 mb 0.00 in0.0 mm 0.00 in0.0 mm 0.00 in0.0 mm
02:48 AM 59.9°F15.5°C 47.7°F8.7°C 64% 1.9 mph NE3.1 kmh NE 3.8 mph6.1 kmh 29.83 in1010.2 mb 0.00 in0.0 mm 0.00 in0.0 mm 0.00 in0.0 mm
02:47 AM 59.9°F15.5°C 47.7°F8.7°C 64% 1.3 mph NE2.1 kmh NE 3.8 mph6.1 kmh 29.83 in1010.2 mb 0.00 in0.0 mm 0.00 in0.0 mm 0.00 in0.0 mm
02:46 AM 59.9°F15.5°C 47.7°F8.7°C 64% 1.3 mph NE2.1 kmh NE 3.8 mph6.1 kmh 29.83 in1010.2 mb 0.00 in0.0 mm 0.00 in0.0 mm 0.00 in0.0 mm
02:45 AM 60.1°F15.6°C 47.9°F8.8°C 64% 1.3 mph NE2.1 kmh NE 3.8 mph6.1 kmh 29.83 in1010.2 mb 0.00 in0.0 mm 0.00 in0.0 mm 0.00 in0.0 mm
02:44 AM 60.1°F15.6°C 47.9°F8.8°C 64% 1.3 mph NE2.1 kmh NE 3.8 mph6.1 kmh 29.83 in1010.2 mb 0.00 in0.0 mm 0.00 in0.0 mm 0.00 in0.0 mm
02:43 AM 60.1°F15.6°C 47.9°F8.8°C 64% 0.8 mph NNE1.3 kmh NNE 3.1 mph5.0 kmh 29.83 in1010.2 mb 0.00 in0.0 mm 0.00 in0.0 mm 0.00 in0.0 mm
02:42 AM 60.1°F15.6°C 47.9°F8.8°C 64% 0.6 mph NNE1.0 kmh NNE 3.1 mph5.0 kmh 29.83 in1010.2 mb 0.00 in0.0 mm 0.00 in0.0 mm 0.00 in0.0 mm
02:41 AM 60.1°F15.6°C 47.9°F8.8°C 64% 0.4 mph NNE0.6 kmh NNE 3.1 mph5.0 kmh 29.83 in1010.2 mb 0.00 in0.0 mm 0.00 in0.0 mm 0.00 in0.0 mm
02:40 AM 60.1°F15.6°C 47.9°F8.8°C 64% 0.4 mph NNE0.6 kmh NNE 3.1 mph5.0 kmh 29.83 in1010.2 mb 0.00 in0.0 mm 0.00 in0.0 mm 0.00 in0.0 mm
02:39 AM 60.1°F15.6°C 47.9°F8.8°C 64% 0.2 mph ENE0.3 kmh ENE 1.9 mph3.1 kmh 29.83 in1010.2 mb 0.00 in0.0 mm 0.00 in0.0 mm 0.00 in0.0 mm
02:38 AM 60.1°F15.6°C 47.9°F8.8°C 64% Calm Calm -- 29.83 in1010.2 mb 0.00 in0.0 mm 0.00 in0.0 mm 0.00 in0.0 mm
02:37 AM 60.1°F15.6°C 47.9°F8.8°C 64% Calm Calm -- 29.83 in1010.2 mb 0.00 in0.0 mm 0.00 in0.0 mm 0.00 in0.0 mm
02:36 AM 60.3°F15.7°C 48.0°F8.9°C 64% Calm Calm -- 29.83 in1010.2 mb 0.00 in0.0 mm 0.00 in0.0 mm 0.00 in0.0 mm
02:35 AM 60.3°F15.7°C 48.0°F8.9°C 64% 0.1 mph N0.2 kmh N 2.2 mph3.5 kmh 29.83 in1010.2 mb 0.00 in0.0 mm 0.00 in0.0 mm 0.00 in0.0 mm
02:34 AM 60.3°F15.7°C 48.0°F8.9°C 64% 0.3 mph N0.5 kmh N 2.2 mph3.5 kmh 29.83 in1010.2 mb 0.00 in0.0 mm 0.00 in0.0 mm 0.00 in0.0 mm
02:33 AM 60.3°F15.7°C 48.0°F8.9°C 64% 0.4 mph N0.6 kmh N 2.2 mph3.5 kmh 29.83 in1010.2 mb 0.00 in0.0 mm 0.00 in0.0 mm 0.00 in0.0 mm
02:32 AM 60.3°F15.7°C 48.0°F8.9°C 64% 0.4 mph N0.6 kmh N 2.2 mph3.5 kmh 29.83 in1010.2 mb 0.00 in0.0 mm 0.00 in0.0 mm 0.00 in0.0 mm
02:31 AM 60.3°F15.7°C 48.0°F8.9°C 64% 0.4 mph N0.6 kmh N 2.2 mph3.5 kmh 29.83 in1010.2 mb 0.00 in0.0 mm 0.00 in0.0 mm 0.00 in0.0 mm
02:30 AM 60.3°F15.7°C 48.0°F8.9°C 64% 0.4 mph N0.6 kmh N 2.2 mph3.5 kmh 29.83 in1010.2 mb 0.00 in0.0 mm 0.00 in0.0 mm 0.00 in0.0 mm
02:29 AM 60.4°F15.8°C 48.2°F9.0°C 64% 0.5 mph N0.8 kmh N 2.2 mph3.5 kmh 29.83 in1010.2 mb 0.00 in0.0 mm 0.00 in0.0 mm 0.00 in0.0 mm
02:28 AM 60.4°F15.8°C 48.2°F9.0°C 64% 0.6 mph N1.0 kmh N 2.2 mph3.5 kmh 29.83 in1010.2 mb 0.00 in0.0 mm 0.00 in0.0 mm 0.00 in0.0 mm
02:27 AM 60.4°F15.8°C 48.2°F9.0°C 64% 0.6 mph N1.0 kmh N 2.2 mph3.5 kmh 29.83 in1010.2 mb 0.00 in0.0 mm 0.00 in0.0 mm 0.00 in0.0 mm
02:26 AM 60.4°F15.8°C 48.2°F9.0°C 64% 0.9 mph N1.4 kmh N 4.1 mph6.6 kmh 29.83 in1010.2 mb 0.00 in0.0 mm 0.00 in0.0 mm 0.00 in0.0 mm
02:25 AM 60.4°F15.8°C 48.2°F9.0°C 64% 0.9 mph N1.4 kmh N 4.1 mph6.6 kmh 29.83 in1010.2 mb 0.00 in0.0 mm 0.00 in0.0 mm 0.00 in0.0 mm
02:24 AM 60.4°F15.8°C 48.2°F9.0°C 64% 0.6 mph N1.0 kmh N 4.1 mph6.6 kmh 29.83 in1010.2 mb 0.00 in0.0 mm 0.00 in0.0 mm 0.00 in0.0 mm
02:23 AM 60.4°F15.8°C 48.2°F9.0°C 64% 0.6 mph N1.0 kmh N 4.1 mph6.6 kmh 29.83 in1010.2 mb 0.00 in0.0 mm 0.00 in0.0 mm 0.00 in0.0 mm
02:22 AM 60.6°F15.9°C 48.4°F9.1°C 64% 0.4 mph N0.6 kmh N 4.1 mph6.6 kmh 29.83 in1010.2 mb 0.00 in0.0 mm 0.00 in0.0 mm 0.00 in0.0 mm
02:21 AM 60.6°F15.9°C 48.4°F9.1°C 64% 0.4 mph N0.6 kmh N 4.1 mph6.6 kmh 29.83 in1010.2 mb 0.00 in0.0 mm 0.00 in0.0 mm 0.00 in0.0 mm
02:20 AM 60.6°F15.9°C 48.4°F9.1°C 64% 0.4 mph N0.6 kmh N 4.1 mph6.6 kmh 29.83 in1010.2 mb 0.00 in0.0 mm 0.00 in0.0 mm 0.00 in0.0 mm
02:19 AM 60.6°F15.9°C 48.4°F9.1°C 64% 0.6 mph N1.0 kmh N 4.1 mph6.6 kmh 29.83 in1010.2 mb 0.00 in0.0 mm 0.00 in0.0 mm 0.00 in0.0 mm
02:18 AM 60.6°F15.9°C 48.4°F9.1°C 64% 0.8 mph N1.3 kmh N 4.1 mph6.6 kmh 29.83 in1010.2 mb 0.00 in0.0 mm 0.00 in0.0 mm 0.00 in0.0 mm
02:17 AM 60.6°F15.9°C 48.4°F9.1°C 64% 1.1 mph NNE1.8 kmh NNE 4.1 mph6.6 kmh 29.83 in1010.2 mb 0.00 in0.0 mm 0.00 in0.0 mm 0.00 in0.0 mm
02:16 AM 60.6°F15.9°C 48.4°F9.1°C 64% 0.9 mph NNE1.4 kmh NNE 3.4 mph5.5 kmh 29.83 in1010.2 mb 0.00 in0.0 mm 0.00 in0.0 mm 0.00 in0.0 mm
02:15 AM 60.6°F15.9°C 48.4°F9.1°C 64% 1.1 mph NE1.8 kmh NE 3.4 mph5.5 kmh 29.83 in1010.2 mb 0.00 in0.0 mm 0.00 in0.0 mm 0.00 in0.0 mm
02:14 AM 60.6°F15.9°C 48.4°F9.1°C 64% 1.2 mph NE1.9 kmh NE 3.4 mph5.5 kmh 29.86 in1011.2 mb 0.00 in0.0 mm 0.00 in0.0 mm 0.00 in0.0 mm
02:13 AM 60.8°F16.0°C 48.1°F8.9°C 63% 1.3 mph NE2.1 kmh NE 3.4 mph5.5 kmh 29.86 in1011.2 mb 0.00 in0.0 mm 0.00 in0.0 mm 0.00 in0.0 mm
02:12 AM 60.8°F16.0°C 48.1°F8.9°C 63% 1.4 mph NE2.3 kmh NE 3.4 mph5.5 kmh 29.86 in1011.2 mb 0.00 in0.0 mm 0.00 in0.0 mm 0.00 in0.0 mm
02:11 AM 60.8°F16.0°C 48.1°F8.9°C 63% 1.5 mph NE2.4 kmh NE 3.4 mph5.5 kmh 29.86 in1011.2 mb 0.00 in0.0 mm 0.00 in0.0 mm 0.00 in0.0 mm
02:10 AM 60.8°F16.0°C 48.1°F8.9°C 63% 1.8 mph NE2.9 kmh NE 3.4 mph5.5 kmh 29.86 in1011.2 mb 0.00 in0.0 mm 0.00 in0.0 mm 0.00 in0.0 mm
02:09 AM 60.8°F16.0°C 48.1°F8.9°C 63% 1.8 mph NE2.9 kmh NE 3.4 mph5.5 kmh 29.86 in1011.2 mb 0.00 in0.0 mm 0.00 in0.0 mm 0.00 in0.0 mm
02:08 AM 61.0°F16.1°C 48.3°F9.1°C 63% 1.8 mph NE2.9 kmh NE 3.4 mph5.5 kmh 29.86 in1011.2 mb 0.00 in0.0 mm 0.00 in0.0 mm 0.00 in0.0 mm
02:07 AM 61.0°F16.1°C 48.3°F9.1°C 63% 1.7 mph NE2.7 kmh NE 2.8 mph4.5 kmh 29.86 in1011.2 mb 0.00 in0.0 mm 0.00 in0.0 mm 0.00 in0.0 mm
02:06 AM 61.0°F16.1°C 48.3°F9.1°C 63% 1.8 mph NE2.9 kmh NE 2.8 mph4.5 kmh 29.86 in1011.2 mb 0.00 in0.0 mm 0.00 in0.0 mm 0.00 in0.0 mm
02:05 AM 61.0°F16.1°C 48.3°F9.1°C 63% 2.1 mph NE3.4 kmh NE 4.7 mph7.6 kmh 29.86 in1011.2 mb 0.00 in0.0 mm 0.00 in0.0 mm 0.00 in0.0 mm
02:04 AM 61.0°F16.1°C 48.3°F9.1°C 63% 2.2 mph NE3.5 kmh NE 4.7 mph7.6 kmh 29.86 in1011.2 mb 0.00 in0.0 mm 0.00 in0.0 mm 0.00 in0.0 mm
02:03 AM 61.0°F16.1°C 48.3°F9.1°C 63% 2.5 mph NE4.0 kmh NE 4.7 mph7.6 kmh 29.86 in1011.2 mb 0.00 in0.0 mm 0.00 in0.0 mm 0.00 in0.0 mm
02:02 AM 61.0°F16.1°C 48.3°F9.1°C 63% 2.7 mph NE4.3 kmh NE 4.7 mph7.6 kmh 29.86 in1011.2 mb 0.00 in0.0 mm 0.00 in0.0 mm 0.00 in0.0 mm
02:01 AM 61.0°F16.1°C 48.3°F9.1°C 63% 2.9 mph NE4.7 kmh NE 4.7 mph7.6 kmh 29.86 in1011.2 mb 0.00 in0.0 mm 0.00 in0.0 mm 0.00 in0.0 mm
02:00 AM 61.0°F16.1°C 48.3°F9.1°C 63% 3.1 mph NE5.0 kmh NE 4.7 mph7.6 kmh 29.86 in1011.2 mb 0.00 in0.0 mm 0.00 in0.0 mm 0.00 in0.0 mm
01:59 AM 61.0°F16.1°C 48.3°F9.1°C 63% 3.3 mph NE5.3 kmh NE 4.7 mph7.6 kmh 29.86 in1011.2 mb 0.00 in0.0 mm 0.00 in0.0 mm 0.00 in0.0 mm
01:58 AM 61.2°F16.2°C 48.5°F9.2°C 63% 3.5 mph NE5.6 kmh NE 4.7 mph7.6 kmh 29.86 in1011.2 mb 0.00 in0.0 mm 0.00 in0.0 mm 0.00 in0.0 mm
01:57 AM 61.2°F16.2°C 48.5°F9.2°C 63% 3.8 mph NE6.1 kmh NE 6.0 mph9.7 kmh 29.86 in1011.2 mb 0.00 in0.0 mm 0.00 in0.0 mm 0.00 in0.0 mm
01:56 AM 61.2°F16.2°C 48.5°F9.2°C 63% 4.2 mph NE6.8 kmh NE 6.0 mph9.7 kmh 29.86 in1011.2 mb 0.00 in0.0 mm 0.00 in0.0 mm 0.00 in0.0 mm
01:55 AM 61.2°F16.2°C 48.5°F9.2°C 63% 4.3 mph NE6.9 kmh NE 6.0 mph9.7 kmh 29.86 in1011.2 mb 0.00 in0.0 mm 0.00 in0.0 mm 0.00 in0.0 mm
01:54 AM 61.2°F16.2°C 48.5°F9.2°C 63% 4.1 mph NE6.6 kmh NE 6.0 mph9.7 kmh 29.86 in1011.2 mb 0.00 in0.0 mm 0.00 in0.0 mm 0.00 in0.0 mm
01:53 AM 61.2°F16.2°C 48.5°F9.2°C 63% 4.0 mph NE6.4 kmh NE 6.0 mph9.7 kmh 29.86 in1011.2 mb 0.00 in0.0 mm 0.00 in0.0 mm 0.00 in0.0 mm
01:52 AM 61.2°F16.2°C 48.5°F9.2°C 63% 3.8 mph NE6.1 kmh NE 6.0 mph9.7 kmh 29.86 in1011.2 mb 0.00 in0.0 mm 0.00 in0.0 mm 0.00 in0.0 mm
01:51 AM 61.2°F16.2°C 48.5°F9.2°C 63% 3.8 mph NE6.1 kmh NE 6.0 mph9.7 kmh 29.86 in1011.2 mb 0.00 in0.0 mm 0.00 in0.0 mm 0.00 in0.0 mm
01:50 AM 61.2°F16.2°C 48.5°F9.2°C 63% 3.8 mph NE6.1 kmh NE 6.0 mph9.7 kmh 29.86 in1011.2 mb 0.00 in0.0 mm 0.00 in0.0 mm 0.00 in0.0 mm
01:49 AM 61.2°F16.2°C 48.5°F9.2°C 63% 3.7 mph NE6.0 kmh NE 6.0 mph9.7 kmh 29.86 in1011.2 mb 0.00 in0.0 mm 0.00 in0.0 mm 0.00 in0.0 mm
01:48 AM 61.2°F16.2°C 48.5°F9.2°C 63% 3.3 mph NE5.3 kmh NE 6.0 mph9.7 kmh 29.86 in1011.2 mb 0.00 in0.0 mm 0.00 in0.0 mm 0.00 in0.0 mm
01:47 AM 61.2°F16.2°C 48.0°F8.9°C 62% 3.2 mph NE5.1 kmh NE 6.0 mph9.7 kmh 29.86 in1011.2 mb 0.00 in0.0 mm 0.00 in0.0 mm 0.00 in0.0 mm
01:46 AM 61.2°F16.2°C 48.0°F8.9°C 62% 3.2 mph NE5.1 kmh NE 5.0 mph8.0 kmh 29.86 in1011.2 mb 0.00 in0.0 mm 0.00 in0.0 mm 0.00 in0.0 mm
01:45 AM 61.2°F16.2°C 48.0°F8.9°C 62% 3.1 mph NE5.0 kmh NE 5.0 mph8.0 kmh 29.86 in1011.2 mb 0.00 in0.0 mm 0.00 in0.0 mm 0.00 in0.0 mm
01:44 AM 61.2°F16.2°C 48.0°F8.9°C 62% 3.2 mph NE5.1 kmh NE 5.0 mph8.0 kmh 29.86 in1011.2 mb 0.00 in0.0 mm 0.00 in0.0 mm 0.00 in0.0 mm
01:43 AM 61.3°F16.3°C 48.2°F9.0°C 62% 3.0 mph NE4.8 kmh NE 5.0 mph8.0 kmh 29.86 in1011.2 mb 0.00 in0.0 mm 0.00 in0.0 mm 0.00 in0.0 mm
01:42 AM 61.3°F16.3°C 48.2°F9.0°C 62% 3.2 mph NE5.1 kmh NE 5.6 mph9.0 kmh 29.86 in1011.2 mb 0.00 in0.0 mm 0.00 in0.0 mm 0.00 in0.0 mm
01:41 AM 61.3°F16.3°C 48.2°F9.0°C 62% 3.4 mph NE5.5 kmh NE 5.6 mph9.0 kmh 29.86 in1011.2 mb 0.00 in0.0 mm 0.00 in0.0 mm 0.00 in0.0 mm
01:40 AM 61.3°F16.3°C 48.2°F9.0°C 62% 3.4 mph NE5.5 kmh NE 5.6 mph9.0 kmh 29.86 in1011.2 mb 0.00 in0.0 mm 0.00 in0.0 mm 0.00 in0.0 mm
01:39 AM 61.3°F16.3°C 48.2°F9.0°C 62% 3.6 mph NE5.8 kmh NE 5.6 mph9.0 kmh 29.86 in1011.2 mb 0.00 in0.0 mm 0.00 in0.0 mm 0.00 in0.0 mm
01:38 AM 61.3°F16.3°C 48.2°F9.0°C 62% 4.2 mph NE6.8 kmh NE 6.0 mph9.7 kmh 29.86 in1011.2 mb 0.00 in0.0 mm 0.00 in0.0 mm 0.00 in0.0 mm
01:37 AM 61.3°F16.3°C 48.2°F9.0°C 62% 4.3 mph NE6.9 kmh NE 6.0 mph9.7 kmh 29.86 in1011.2 mb 0.00 in0.0 mm 0.00 in0.0 mm 0.00 in0.0 mm
01:36 AM 61.3°F16.3°C 48.2°F9.0°C 62% 4.0 mph NE6.4 kmh NE 6.0 mph9.7 kmh 29.86 in1011.2 mb 0.00 in0.0 mm 0.00 in0.0 mm 0.00 in0.0 mm
01:35 AM 61.3°F16.3°C 48.2°F9.0°C 62% 3.9 mph NE6.3 kmh NE 6.0 mph9.7 kmh 29.86 in1011.2 mb 0.00 in0.0 mm 0.00 in0.0 mm 0.00 in0.0 mm
01:34 AM 61.3°F16.3°C 48.2°F9.0°C 62% 3.9 mph NE6.3 kmh NE 6.0 mph9.7 kmh 29.86 in1011.2 mb 0.00 in0.0 mm 0.00 in0.0 mm 0.00 in0.0 mm
01:33 AM 61.3°F16.3°C 48.2°F9.0°C 62% 4.3 mph NE6.9 kmh NE 6.0 mph9.7 kmh 29.86 in1011.2 mb 0.00 in0.0 mm 0.00 in0.0 mm 0.00 in0.0 mm
01:32 AM 61.3°F16.3°C 48.2°F9.0°C 62% 4.5 mph NE7.2 kmh NE 6.0 mph9.7 kmh 29.86 in1011.2 mb 0.00 in0.0 mm 0.00 in0.0 mm 0.00 in0.0 mm
01:31 AM 61.3°F16.3°C 48.2°F9.0°C 62% 4.9 mph NE7.9 kmh NE 7.8 mph12.6 kmh 29.86 in1011.2 mb 0.00 in0.0 mm 0.00 in0.0 mm 0.00 in0.0 mm
01:30 AM 61.3°F16.3°C 48.2°F9.0°C 62% 4.8 mph NE7.7 kmh NE 7.8 mph12.6 kmh 29.86 in1011.2 mb 0.00 in0.0 mm 0.00 in0.0 mm 0.00 in0.0 mm
01:29 AM 61.3°F16.3°C 48.2°F9.0°C 62% 5.0 mph NE8.0 kmh NE 7.8 mph12.6 kmh 29.86 in1011.2 mb 0.00 in0.0 mm 0.00 in0.0 mm 0.00 in0.0 mm
01:28 AM 61.3°F16.3°C 48.2°F9.0°C 62% 5.0 mph NE8.0 kmh NE 7.8 mph12.6 kmh 29.86 in1011.2 mb 0.00 in0.0 mm 0.00 in0.0 mm 0.00 in0.0 mm
01:27 AM 61.3°F16.3°C 48.2°F9.0°C 62% 4.9 mph NE7.9 kmh NE 7.8 mph12.6 kmh 29.86 in1011.2 mb 0.00 in0.0 mm 0.00 in0.0 mm 0.00 in0.0 mm
01:26 AM 61.3°F16.3°C 48.2°F9.0°C 62% 5.2 mph NE8.4 kmh NE 7.8 mph12.6 kmh 29.86 in1011.2 mb 0.00 in0.0 mm 0.00 in0.0 mm 0.00 in0.0 mm
01:25 AM 61.3°F16.3°C 48.2°F9.0°C 62% 5.4 mph NE8.7 kmh NE 7.8 mph12.6 kmh 29.86 in1011.2 mb 0.00 in0.0 mm 0.00 in0.0 mm 0.00 in0.0 mm
01:24 AM 61.3°F16.3°C 48.2°F9.0°C 62% 5.5 mph NE8.9 kmh NE 7.8 mph12.6 kmh 29.86 in1011.2 mb 0.00 in0.0 mm 0.00 in0.0 mm 0.00 in0.0 mm
01:23 AM 61.3°F16.3°C 48.2°F9.0°C 62% 5.5 mph NE8.9 kmh NE 7.8 mph12.6 kmh 29.86 in1011.2 mb 0.00 in0.0 mm 0.00 in0.0 mm 0.00 in0.0 mm
01:22 AM 61.2°F16.2°C 47.6°F8.7°C 61% 5.4 mph NE8.7 kmh NE 7.8 mph12.6 kmh 29.86 in1011.2 mb 0.00 in0.0 mm 0.00 in0.0 mm 0.00 in0.0 mm
01:21 AM 61.2°F16.2°C 47.6°F8.7°C 61% 5.2 mph NE8.4 kmh NE 6.6 mph10.6 kmh 29.86 in1011.2 mb 0.00 in0.0 mm 0.00 in0.0 mm 0.00 in0.0 mm
01:20 AM 61.2°F16.2°C 47.6°F8.7°C 61% 5.2 mph ENE8.4 kmh ENE 6.6 mph10.6 kmh 29.86 in1011.2 mb 0.00 in0.0 mm 0.00 in0.0 mm 0.00 in0.0 mm
01:19 AM 61.2°F16.2°C 47.6°F8.7°C 61% 5.2 mph ENE8.4 kmh ENE 6.6 mph10.6 kmh 29.86 in1011.2 mb 0.00 in0.0 mm 0.00 in0.0 mm 0.00 in0.0 mm
01:18 AM 61.2°F16.2°C 47.6°F8.7°C 61% 5.1 mph ENE8.2 kmh ENE 6.6 mph10.6 kmh 29.86 in1011.2 mb 0.00 in0.0 mm 0.00 in0.0 mm 0.00 in0.0 mm
01:17 AM 61.2°F16.2°C 47.6°F8.7°C 61% 5.0 mph ENE8.0 kmh ENE 6.6 mph10.6 kmh 29.86 in1011.2 mb 0.00 in0.0 mm 0.00 in0.0 mm 0.00 in0.0 mm
01:16 AM 61.2°F16.2°C 47.6°F8.7°C 61% 5.0 mph ENE8.0 kmh ENE 6.6 mph10.6 kmh 29.86 in1011.2 mb 0.00 in0.0 mm 0.00 in0.0 mm 0.00 in0.0 mm
01:15 AM 61.2°F16.2°C 47.6°F8.7°C 61% 4.7 mph ENE7.6 kmh ENE 6.0 mph9.7 kmh 29.86 in1011.2 mb 0.00 in0.0 mm 0.00 in0.0 mm 0.00 in0.0 mm
01:14 AM 61.2°F16.2°C 47.6°F8.7°C 61% 4.7 mph ENE7.6 kmh ENE 6.0 mph9.7 kmh 29.86 in1011.2 mb 0.00 in0.0 mm 0.00 in0.0 mm 0.00 in0.0 mm
01:13 AM 61.2°F16.2°C 47.6°F8.7°C 61% 4.7 mph ENE7.6 kmh ENE 6.0 mph9.7 kmh 29.86 in1011.2 mb 0.00 in0.0 mm 0.00 in0.0 mm 0.00 in0.0 mm
01:12 AM 61.2°F16.2°C 47.6°F8.7°C 61% 4.8 mph ENE7.7 kmh ENE 6.0 mph9.7 kmh 29.86 in1011.2 mb 0.00 in0.0 mm 0.00 in0.0 mm 0.00 in0.0 mm
01:11 AM 61.2°F16.2°C 47.6°F8.7°C 61% 4.8 mph ENE7.7 kmh ENE 6.0 mph9.7 kmh 29.86 in1011.2 mb 0.00 in0.0 mm 0.00 in0.0 mm 0.00 in0.0 mm
01:10 AM 61.2°F16.2°C 47.6°F8.7°C 61% 4.8 mph ENE7.7 kmh ENE 6.9 mph11.1 kmh 29.86 in1011.2 mb 0.00 in0.0 mm 0.00 in0.0 mm 0.00 in0.0 mm
01:09 AM 61.2°F16.2°C 47.6°F8.7°C 61% 4.9 mph ENE7.9 kmh ENE 6.9 mph11.1 kmh 29.86 in1011.2 mb 0.00 in0.0 mm 0.00 in0.0 mm 0.00 in0.0 mm
01:08 AM 61.2°F16.2°C 47.6°F8.7°C 61% 5.3 mph ENE8.5 kmh ENE 6.9 mph11.1 kmh 29.86 in1011.2 mb 0.00 in0.0 mm 0.00 in0.0 mm 0.00 in0.0 mm
01:07 AM 61.2°F16.2°C 47.6°F8.7°C 61% 5.3 mph NE8.5 kmh NE 6.9 mph11.1 kmh 29.86 in1011.2 mb 0.00 in0.0 mm 0.00 in0.0 mm 0.00 in0.0 mm
01:06 AM 61.2°F16.2°C 47.6°F8.7°C 61% 5.4 mph NE8.7 kmh NE 6.9 mph11.1 kmh 29.86 in1011.2 mb 0.00 in0.0 mm 0.00 in0.0 mm 0.00 in0.0 mm
01:05 AM 61.2°F16.2°C 47.6°F8.7°C 61% 5.5 mph NE8.9 kmh NE 6.9 mph11.1 kmh 29.86 in1011.2 mb 0.00 in0.0 mm 0.00 in0.0 mm 0.00 in0.0 mm
01:04 AM 61.2°F16.2°C 47.6°F8.7°C 61% 5.5 mph NE8.9 kmh NE 6.9 mph11.1 kmh 29.86 in1011.2 mb 0.00 in0.0 mm 0.00 in0.0 mm 0.00 in0.0 mm
01:03 AM 61.2°F16.2°C 47.2°F8.4°C 60% 5.5 mph NE8.9 kmh NE 6.9 mph11.1 kmh 29.86 in1011.2 mb 0.00 in0.0 mm 0.00 in0.0 mm 0.00 in0.0 mm
01:02 AM 61.2°F16.2°C 47.2°F8.4°C 60% 5.6 mph NE9.0 kmh NE 6.9 mph11.1 kmh 29.86 in1011.2 mb 0.00 in0.0 mm 0.00 in0.0 mm 0.00 in0.0 mm
01:01 AM 61.2°F16.2°C 47.2°F8.4°C 60% 5.6 mph NE9.0 kmh NE 6.9 mph11.1 kmh 29.86 in1011.2 mb 0.00 in0.0 mm 0.00 in0.0 mm 0.00 in0.0 mm
01:00 AM 61.2°F16.2°C 47.2°F8.4°C 60% 5.5 mph NE8.9 kmh NE 6.9 mph11.1 kmh 29.86 in1011.2 mb 0.00 in0.0 mm 0.00 in0.0 mm 0.00 in0.0 mm
12:59 AM 61.0°F16.1°C 47.0°F8.3°C 60% 5.2 mph NE8.4 kmh NE 6.9 mph11.1 kmh 29.86 in1011.2 mb 0.00 in0.0 mm 0.00 in0.0 mm 0.00 in0.0 mm
12:58 AM 61.0°F16.1°C 47.0°F8.3°C 60% 5.2 mph NE8.4 kmh NE 6.9 mph11.1 kmh 29.86 in1011.2 mb 0.00 in0.0 mm 0.00 in0.0 mm 0.00 in0.0 mm
12:57 AM 61.0°F16.1°C 47.0°F8.3°C 60% 5.3 mph ENE8.5 kmh ENE 6.9 mph11.1 kmh 29.86 in1011.2 mb 0.00 in0.0 mm 0.00 in0.0 mm 0.00 in0.0 mm
12:56 AM 61.0°F16.1°C 47.0°F8.3°C 60% 5.5 mph ENE8.9 kmh ENE 7.8 mph12.6 kmh 29.86 in1011.2 mb 0.00 in0.0 mm 0.00 in0.0 mm 0.00 in0.0 mm
12:55 AM 61.0°F16.1°C 47.0°F8.3°C 60% 5.7 mph ENE9.2 kmh ENE 7.8 mph12.6 kmh 29.86 in1011.2 mb 0.00 in0.0 mm 0.00 in0.0 mm 0.00 in0.0 mm
12:54 AM 61.0°F16.1°C 47.0°F8.3°C 60% 5.7 mph ENE9.2 kmh ENE 7.8 mph12.6 kmh 29.86 in1011.2 mb 0.00 in0.0 mm 0.00 in0.0 mm 0.00 in0.0 mm
12:53 AM 61.0°F16.1°C 47.0°F8.3°C 60% 5.8 mph ENE9.3 kmh ENE 7.8 mph12.6 kmh 29.86 in1011.2 mb 0.00 in0.0 mm 0.00 in0.0 mm 0.00 in0.0 mm
12:52 AM 61.0°F16.1°C 47.0°F8.3°C 60% 6.0 mph ENE9.7 kmh ENE 9.1 mph14.6 kmh 29.86 in1011.2 mb 0.00 in0.0 mm 0.00 in0.0 mm 0.00 in0.0 mm
12:51 AM 61.0°F16.1°C 47.0°F8.3°C 60% 6.1 mph ENE9.8 kmh ENE 9.1 mph14.6 kmh 29.86 in1011.2 mb 0.00 in0.0 mm 0.00 in0.0 mm 0.00 in0.0 mm
12:50 AM 61.0°F16.1°C 47.0°F8.3°C 60% 6.4 mph ENE10.3 kmh ENE 9.1 mph14.6 kmh 29.86 in1011.2 mb 0.00 in0.0 mm 0.00 in0.0 mm 0.00 in0.0 mm
12:49 AM 61.0°F16.1°C 47.0°F8.3°C 60% 6.6 mph ENE10.6 kmh ENE 9.1 mph14.6 kmh 29.86 in1011.2 mb 0.00 in0.0 mm 0.00 in0.0 mm 0.00 in0.0 mm
12:48 AM 61.0°F16.1°C 47.0°F8.3°C 60% 6.5 mph ENE10.5 kmh ENE 9.1 mph14.6 kmh 29.86 in1011.2 mb 0.00 in0.0 mm 0.00 in0.0 mm 0.00 in0.0 mm
12:47 AM 61.0°F16.1°C 47.0°F8.3°C 60% 6.3 mph ENE10.1 kmh ENE 9.1 mph14.6 kmh 29.86 in1011.2 mb 0.00 in0.0 mm 0.00 in0.0 mm 0.00 in0.0 mm
12:46 AM 61.0°F16.1°C 47.0°F8.3°C 60% 6.0 mph ENE9.7 kmh ENE 9.1 mph14.6 kmh 29.86 in1011.2 mb 0.00 in0.0 mm 0.00 in0.0 mm 0.00 in0.0 mm
12:45 AM 60.8°F16.0°C 46.4°F8.0°C 59% 5.4 mph ENE8.7 kmh ENE 9.1 mph14.6 kmh 29.86 in1011.2 mb 0.00 in0.0 mm 0.00 in0.0 mm 0.00 in0.0 mm
12:44 AM 60.8°F16.0°C 46.4°F8.0°C 59% 5.5 mph ENE8.9 kmh ENE 9.1 mph14.6 kmh 29.86 in1011.2 mb 0.00 in0.0 mm 0.00 in0.0 mm 0.00 in0.0 mm
12:43 AM 60.8°F16.0°C 46.4°F8.0°C 59% 5.4 mph ENE8.7 kmh ENE 9.1 mph14.6 kmh 29.86 in1011.2 mb 0.00 in0.0 mm 0.00 in0.0 mm 0.00 in0.0 mm
12:42 AM 60.8°F16.0°C 46.4°F8.0°C 59% 5.0 mph ENE8.0 kmh ENE 7.8 mph12.6 kmh 29.86 in1011.2 mb 0.00 in0.0 mm 0.00 in0.0 mm 0.00 in0.0 mm
12:41 AM 60.8°F16.0°C 46.4°F8.0°C 59% 4.9 mph ENE7.9 kmh ENE 7.8 mph12.6 kmh 29.86 in1011.2 mb 0.00 in0.0 mm 0.00 in0.0 mm 0.00 in0.0 mm
12:40 AM 60.8°F16.0°C 46.4°F8.0°C 59% 4.7 mph ENE7.6 kmh ENE 6.0 mph9.7 kmh 29.86 in1011.2 mb 0.00 in0.0 mm 0.00 in0.0 mm 0.00 in0.0 mm
12:39 AM 60.8°F16.0°C 46.4°F8.0°C 59% 4.6 mph ENE7.4 kmh ENE 5.6 mph9.0 kmh 29.86 in1011.2 mb 0.00 in0.0 mm 0.00 in0.0 mm 0.00 in0.0 mm
12:38 AM 60.8°F16.0°C 46.4°F8.0°C 59% 4.4 mph NE7.1 kmh NE 5.6 mph9.0 kmh 29.86 in1011.2 mb 0.00 in0.0 mm 0.00 in0.0 mm 0.00 in0.0 mm
12:37 AM 60.8°F16.0°C 46.4°F8.0°C 59% 4.3 mph ENE6.9 kmh ENE 5.6 mph9.0 kmh 29.86 in1011.2 mb 0.00 in0.0 mm 0.00 in0.0 mm 0.00 in0.0 mm
12:36 AM 60.8°F16.0°C 46.4°F8.0°C 59% 4.1 mph ENE6.6 kmh ENE 5.6 mph9.0 kmh 29.86 in1011.2 mb 0.00 in0.0 mm 0.00 in0.0 mm 0.00 in0.0 mm
12:35 AM 60.8°F16.0°C 46.4°F8.0°C 59% 4.1 mph ENE6.6 kmh ENE 5.6 mph9.0 kmh 29.86 in1011.2 mb 0.00 in0.0 mm 0.00 in0.0 mm 0.00 in0.0 mm
12:34 AM 60.8°F16.0°C 46.4°F8.0°C 59% 4.1 mph NE6.6 kmh NE 5.6 mph9.0 kmh 29.86 in1011.2 mb 0.00 in0.0 mm 0.00 in0.0 mm 0.00 in0.0 mm
12:33 AM 60.8°F16.0°C 46.4°F8.0°C 59% 3.9 mph NE6.3 kmh NE 5.6 mph9.0 kmh 29.86 in1011.2 mb 0.00 in0.0 mm 0.00 in0.0 mm 0.00 in0.0 mm
12:32 AM 60.8°F16.0°C 46.4°F8.0°C 59% 3.8 mph NE6.1 kmh NE 5.0 mph8.0 kmh 29.86 in1011.2 mb 0.00 in0.0 mm 0.00 in0.0 mm 0.00 in0.0 mm
12:31 AM 60.6°F15.9°C 46.2°F7.9°C 59% 3.5 mph NE5.6 kmh NE 5.0 mph8.0 kmh 29.86 in1011.2 mb 0.00 in0.0 mm 0.00 in0.0 mm 0.00 in0.0 mm
12:30 AM 60.6°F15.9°C 46.2°F7.9°C 59% 3.4 mph NE5.5 kmh NE 5.0 mph8.0 kmh 29.86 in1011.2 mb 0.00 in0.0 mm 0.00 in0.0 mm 0.00 in0.0 mm
12:29 AM 60.6°F15.9°C 46.2°F7.9°C 59% 2.8 mph NE4.5 kmh NE 5.0 mph8.0 kmh 29.86 in1011.2 mb 0.00 in0.0 mm 0.00 in0.0 mm 0.00 in0.0 mm
12:28 AM 60.6°F15.9°C 46.2°F7.9°C 59% 2.7 mph NE4.3 kmh NE 5.0 mph8.0 kmh 29.86 in1011.2 mb 0.00 in0.0 mm 0.00 in0.0 mm 0.00 in0.0 mm
12:27 AM 60.6°F15.9°C 46.2°F7.9°C 59% 2.4 mph NE3.9 kmh NE 5.0 mph8.0 kmh 29.86 in1011.2 mb 0.00 in0.0 mm 0.00 in0.0 mm 0.00 in0.0 mm
12:26 AM 60.6°F15.9°C 45.8°F7.7°C 58% 2.5 mph NE4.0 kmh NE 5.0 mph8.0 kmh 29.86 in1011.2 mb 0.00 in0.0 mm 0.00 in0.0 mm 0.00 in0.0 mm
12:25 AM 60.6°F15.9°C 45.8°F7.7°C 58% 2.4 mph NE3.9 kmh NE 5.0 mph8.0 kmh 29.86 in1011.2 mb 0.00 in0.0 mm 0.00 in0.0 mm 0.00 in0.0 mm
12:24 AM 60.6°F15.9°C 45.8°F7.7°C 58% 2.5 mph NE4.0 kmh NE 6.0 mph9.7 kmh 29.86 in1011.2 mb 0.00 in0.0 mm 0.00 in0.0 mm 0.00 in0.0 mm
12:23 AM 60.6°F15.9°C 45.8°F7.7°C 58% 2.6 mph ENE4.2 kmh ENE 6.0 mph9.7 kmh 29.86 in1011.2 mb 0.00 in0.0 mm 0.00 in0.0 mm 0.00 in0.0 mm
12:22 AM 60.6°F15.9°C 45.8°F7.7°C 58% 2.6 mph ENE4.2 kmh ENE 6.0 mph9.7 kmh 29.86 in1011.2 mb 0.00 in0.0 mm 0.00 in0.0 mm 0.00 in0.0 mm
12:21 AM 60.6°F15.9°C 45.8°F7.7°C 58% 2.6 mph ENE4.2 kmh ENE 6.0 mph9.7 kmh 29.86 in1011.2 mb 0.00 in0.0 mm 0.00 in0.0 mm 0.00 in0.0 mm
12:20 AM 60.6°F15.9°C 45.8°F7.7°C 58% 2.9 mph ENE4.7 kmh ENE 6.0 mph9.7 kmh 29.86 in1011.2 mb 0.00 in0.0 mm 0.00 in0.0 mm 0.00 in0.0 mm
12:19 AM 60.6°F15.9°C 45.8°F7.7°C 58% 3.2 mph ENE5.1 kmh ENE 6.0 mph9.7 kmh 29.86 in1011.2 mb 0.00 in0.0 mm 0.00 in0.0 mm 0.00 in0.0 mm
12:18 AM 60.6°F15.9°C 45.8°F7.7°C 58% 3.5 mph ENE5.6 kmh ENE 6.0 mph9.7 kmh 29.86 in1011.2 mb 0.00 in0.0 mm 0.00 in0.0 mm 0.00 in0.0 mm
12:17 AM 60.6°F15.9°C 45.8°F7.7°C 58% 3.8 mph ENE6.1 kmh ENE 6.0 mph9.7 kmh 29.86 in1011.2 mb 0.00 in0.0 mm 0.00 in0.0 mm 0.00 in0.0 mm
12:16 AM 60.6°F15.9°C 45.8°F7.7°C 58% 3.6 mph ENE5.8 kmh ENE 6.0 mph9.7 kmh 29.86 in1011.2 mb 0.00 in0.0 mm 0.00 in0.0 mm 0.00 in0.0 mm
12:15 AM 60.6°F15.9°C 45.8°F7.7°C 58% 3.4 mph ENE5.5 kmh ENE 6.0 mph9.7 kmh 29.86 in1011.2 mb 0.00 in0.0 mm 0.00 in0.0 mm 0.00 in0.0 mm
12:14 AM 60.6°F15.9°C 45.8°F7.7°C 58% 3.2 mph ENE5.1 kmh ENE 6.0 mph9.7 kmh 29.86 in1011.2 mb 0.00 in0.0 mm 0.00 in0.0 mm 0.00 in0.0 mm
12:13 AM 60.6°F15.9°C 45.8°F7.7°C 58% 2.5 mph ENE4.0 kmh ENE 5.3 mph8.5 kmh 29.86 in1011.2 mb 0.00 in0.0 mm 0.00 in0.0 mm 0.00 in0.0 mm
12:12 AM 60.6°F15.9°C 45.8°F7.7°C 58% 2.4 mph NE3.9 kmh NE 5.3 mph8.5 kmh 29.86 in1011.2 mb 0.00 in0.0 mm 0.00 in0.0 mm 0.00 in0.0 mm
12:11 AM 60.6°F15.9°C 45.8°F7.7°C 58% 2.0 mph NE3.2 kmh NE 5.3 mph8.5 kmh 29.86 in1011.2 mb 0.00 in0.0 mm 0.00 in0.0 mm 0.00 in0.0 mm
12:10 AM 60.6°F15.9°C 45.8°F7.7°C 58% 1.5 mph NE2.4 kmh NE 4.4 mph7.1 kmh 29.86 in1011.2 mb 0.00 in0.0 mm 0.00 in0.0 mm 0.00 in0.0 mm
12:09 AM 60.6°F15.9°C 45.8°F7.7°C 58% 1.3 mph NE2.1 kmh NE 3.8 mph6.1 kmh 29.86 in1011.2 mb 0.00 in0.0 mm 0.00 in0.0 mm 0.00 in0.0 mm
12:08 AM 60.8°F16.0°C 45.9°F7.7°C 58% 1.0 mph NE1.6 kmh NE 3.4 mph5.5 kmh 29.86 in1011.2 mb 0.00 in0.0 mm 0.00 in0.0 mm 0.00 in0.0 mm
12:07 AM 60.8°F16.0°C 45.9°F7.7°C 58% 0.8 mph NE1.3 kmh NE 3.4 mph5.5 kmh 29.86 in1011.2 mb 0.00 in0.0 mm 0.00 in0.0 mm 0.00 in0.0 mm
12:06 AM 60.8°F16.0°C 45.9°F7.7°C 58% 0.7 mph NNE1.1 kmh NNE 3.1 mph5.0 kmh 29.86 in1011.2 mb 0.00 in0.0 mm 0.00 in0.0 mm 0.00 in0.0 mm
12:05 AM 60.8°F16.0°C 45.9°F7.7°C 58% 0.8 mph NNE1.3 kmh NNE 3.1 mph5.0 kmh 29.86 in1011.2 mb 0.00 in0.0 mm 0.00 in0.0 mm 0.00 in0.0 mm
12:04 AM 60.8°F16.0°C 45.5°F7.5°C 57% 0.8 mph NNE1.3 kmh NNE 3.1 mph5.0 kmh 29.86 in1011.2 mb 0.00 in0.0 mm 0.00 in0.0 mm 0.00 in0.0 mm
12:03 AM 60.8°F16.0°C 45.5°F7.5°C 57% 0.8 mph NNE1.3 kmh NNE 3.1 mph5.0 kmh 29.86 in1011.2 mb 0.00 in0.0 mm 0.00 in0.0 mm 0.00 in0.0 mm
12:02 AM 60.8°F16.0°C 45.5°F7.5°C 57% 0.6 mph NNE1.0 kmh NNE 1.9 mph3.1 kmh 29.86 in1011.2 mb 0.00 in0.0 mm 0.00 in0.0 mm 0.00 in0.0 mm
12:01 AM 60.8°F16.0°C 45.5°F7.5°C 57% 0.7 mph N1.1 kmh N 1.9 mph3.1 kmh 29.86 in1011.2 mb 0.00 in0.0 mm 0.00 in0.0 mm 0.00 in0.0 mm
12:00 AM 60.8°F16.0°C 45.5°F7.5°C 57% 0.8 mph N1.3 kmh N 1.9 mph3.1 kmh 29.86 in1011.2 mb 0.00 in0.0 mm 0.00 in0.0 mm 0.00 in0.0 mm